<?xml version="1.0" encoding="UTF-8" standalone="no" ?>
<gpx xmlns="http://www.topografix.com/GPX/1/1" xmlns:xsi="http://www.w3.org/2001/XMLSchema-instance" xsi:schemaLocation="http://www.topografix.com/GPX/1/1 http://www.topografix.com/GPX/1/1/gpx.xsd" version="1.1" creator="VisuGPX - https://www.visugpx.com">
  <metadata>
    <name>Randonnée à Cassis jusqu'à la pointe de la Cacau</name>
    <desc><![CDATA[Depuis la gare SNCF de Cassis, calanque de Port Miou, pointe de la Cacau]]></desc>
  </metadata>
  <trk>
    <name><![CDATA[20180409194030-EEXjG]]></name>
    <trkseg>
      <trkpt lat="43.23356" lon="5.55351">
        <ele>125.6</ele>
        <time>2018-04-02T08:11:46Z</time>
      </trkpt>
      <trkpt lat="43.23343" lon="5.55371">
        <ele>125.5</ele>
        <time>2018-04-02T08:12:05Z</time>
      </trkpt>
      <trkpt lat="43.23336" lon="5.55379">
        <ele>125.5</ele>
        <time>2018-04-02T08:12:14Z</time>
      </trkpt>
      <trkpt lat="43.23329" lon="5.55389">
        <ele>123.4</ele>
        <time>2018-04-02T08:12:23Z</time>
      </trkpt>
      <trkpt lat="43.23309" lon="5.55417">
        <ele>123.3</ele>
        <time>2018-04-02T08:12:52Z</time>
      </trkpt>
      <trkpt lat="43.23301" lon="5.55427">
        <ele>122.9</ele>
        <time>2018-04-02T08:13:00Z</time>
      </trkpt>
      <trkpt lat="43.23296" lon="5.55437">
        <ele>122.6</ele>
        <time>2018-04-02T08:13:07Z</time>
      </trkpt>
      <trkpt lat="43.23291" lon="5.55448">
        <ele>122.5</ele>
        <time>2018-04-02T08:13:15Z</time>
      </trkpt>
      <trkpt lat="43.23286" lon="5.55458">
        <ele>122.4</ele>
        <time>2018-04-02T08:13:27Z</time>
      </trkpt>
      <trkpt lat="43.2328" lon="5.55468">
        <ele>122.2</ele>
        <time>2018-04-02T08:13:35Z</time>
      </trkpt>
      <trkpt lat="43.23273" lon="5.55477">
        <ele>122.1</ele>
        <time>2018-04-02T08:13:43Z</time>
      </trkpt>
      <trkpt lat="43.23265" lon="5.55485">
        <ele>121.8</ele>
        <time>2018-04-02T08:13:51Z</time>
      </trkpt>
      <trkpt lat="43.23256" lon="5.55488">
        <ele>121.6</ele>
        <time>2018-04-02T08:14:02Z</time>
      </trkpt>
      <trkpt lat="43.23246" lon="5.55486">
        <ele>120.4</ele>
        <time>2018-04-02T08:14:11Z</time>
      </trkpt>
      <trkpt lat="43.23238" lon="5.55479">
        <ele>120.1</ele>
        <time>2018-04-02T08:14:20Z</time>
      </trkpt>
      <trkpt lat="43.2322" lon="5.55471">
        <ele>119.7</ele>
        <time>2018-04-02T08:14:36Z</time>
      </trkpt>
      <trkpt lat="43.23201" lon="5.5546">
        <ele>119.4</ele>
        <time>2018-04-02T08:14:52Z</time>
      </trkpt>
      <trkpt lat="43.23183" lon="5.55452">
        <ele>119.2</ele>
        <time>2018-04-02T08:15:09Z</time>
      </trkpt>
      <trkpt lat="43.23166" lon="5.55441">
        <ele>118.1</ele>
        <time>2018-04-02T08:15:27Z</time>
      </trkpt>
      <trkpt lat="43.23158" lon="5.55434">
        <ele>118.1</ele>
        <time>2018-04-02T08:15:36Z</time>
      </trkpt>
      <trkpt lat="43.23151" lon="5.55427">
        <ele>118</ele>
        <time>2018-04-02T08:15:44Z</time>
      </trkpt>
      <trkpt lat="43.23143" lon="5.55418">
        <ele>118</ele>
        <time>2018-04-02T08:15:51Z</time>
      </trkpt>
      <trkpt lat="43.23122" lon="5.55391">
        <ele>116.8</ele>
        <time>2018-04-02T08:16:17Z</time>
      </trkpt>
      <trkpt lat="43.23115" lon="5.55382">
        <ele>116.6</ele>
        <time>2018-04-02T08:16:28Z</time>
      </trkpt>
      <trkpt lat="43.2311" lon="5.5537">
        <ele>116.3</ele>
        <time>2018-04-02T08:16:36Z</time>
      </trkpt>
      <trkpt lat="43.23096" lon="5.55335">
        <ele>115</ele>
        <time>2018-04-02T08:16:57Z</time>
      </trkpt>
      <trkpt lat="43.23093" lon="5.55322">
        <ele>114</ele>
        <time>2018-04-02T08:17:04Z</time>
      </trkpt>
      <trkpt lat="43.23093" lon="5.55309">
        <ele>113.9</ele>
        <time>2018-04-02T08:17:11Z</time>
      </trkpt>
      <trkpt lat="43.23088" lon="5.55296">
        <ele>113.7</ele>
        <time>2018-04-02T08:17:19Z</time>
      </trkpt>
      <trkpt lat="43.23069" lon="5.55236">
        <ele>111.2</ele>
        <time>2018-04-02T08:17:58Z</time>
      </trkpt>
      <trkpt lat="43.23067" lon="5.55223">
        <ele>110.8</ele>
        <time>2018-04-02T08:18:05Z</time>
      </trkpt>
      <trkpt lat="43.23063" lon="5.55197">
        <ele>110.2</ele>
        <time>2018-04-02T08:18:18Z</time>
      </trkpt>
      <trkpt lat="43.23059" lon="5.55183">
        <ele>110</ele>
        <time>2018-04-02T08:18:25Z</time>
      </trkpt>
      <trkpt lat="43.23054" lon="5.55171">
        <ele>109.9</ele>
        <time>2018-04-02T08:18:32Z</time>
      </trkpt>
      <trkpt lat="43.23047" lon="5.55146">
        <ele>107.7</ele>
        <time>2018-04-02T08:18:48Z</time>
      </trkpt>
      <trkpt lat="43.23041" lon="5.55136">
        <ele>107.5</ele>
        <time>2018-04-02T08:18:55Z</time>
      </trkpt>
      <trkpt lat="43.23035" lon="5.55126">
        <ele>107.2</ele>
        <time>2018-04-02T08:19:02Z</time>
      </trkpt>
      <trkpt lat="43.23028" lon="5.55117">
        <ele>106.9</ele>
        <time>2018-04-02T08:19:09Z</time>
      </trkpt>
      <trkpt lat="43.23015" lon="5.55098">
        <ele>105.9</ele>
        <time>2018-04-02T08:19:24Z</time>
      </trkpt>
      <trkpt lat="43.23006" lon="5.55091">
        <ele>105.1</ele>
        <time>2018-04-02T08:19:31Z</time>
      </trkpt>
      <trkpt lat="43.22999" lon="5.55081">
        <ele>104</ele>
        <time>2018-04-02T08:19:39Z</time>
      </trkpt>
      <trkpt lat="43.22991" lon="5.55072">
        <ele>103.8</ele>
        <time>2018-04-02T08:19:47Z</time>
      </trkpt>
      <trkpt lat="43.22964" lon="5.55034">
        <ele>103.4</ele>
        <time>2018-04-02T08:20:17Z</time>
      </trkpt>
      <trkpt lat="43.22956" lon="5.55027">
        <ele>103.3</ele>
        <time>2018-04-02T08:20:24Z</time>
      </trkpt>
      <trkpt lat="43.22948" lon="5.5502">
        <ele>103.2</ele>
        <time>2018-04-02T08:20:31Z</time>
      </trkpt>
      <trkpt lat="43.22939" lon="5.55015">
        <ele>103</ele>
        <time>2018-04-02T08:20:39Z</time>
      </trkpt>
      <trkpt lat="43.22931" lon="5.55007">
        <ele>102.7</ele>
        <time>2018-04-02T08:20:46Z</time>
      </trkpt>
      <trkpt lat="43.22925" lon="5.54997">
        <ele>102.1</ele>
        <time>2018-04-02T08:20:56Z</time>
      </trkpt>
      <trkpt lat="43.22917" lon="5.5499">
        <ele>102.1</ele>
        <time>2018-04-02T08:21:04Z</time>
      </trkpt>
      <trkpt lat="43.2291" lon="5.54981">
        <ele>102</ele>
        <time>2018-04-02T08:21:12Z</time>
      </trkpt>
      <trkpt lat="43.22902" lon="5.54974">
        <ele>102</ele>
        <time>2018-04-02T08:21:18Z</time>
      </trkpt>
      <trkpt lat="43.22894" lon="5.54967">
        <ele>102</ele>
        <time>2018-04-02T08:21:24Z</time>
      </trkpt>
      <trkpt lat="43.22887" lon="5.54958">
        <ele>101.9</ele>
        <time>2018-04-02T08:21:31Z</time>
      </trkpt>
      <trkpt lat="43.22857" lon="5.54925">
        <ele>101.6</ele>
        <time>2018-04-02T08:22:01Z</time>
      </trkpt>
      <trkpt lat="43.22841" lon="5.5491">
        <ele>100.8</ele>
        <time>2018-04-02T08:22:15Z</time>
      </trkpt>
      <trkpt lat="43.22832" lon="5.54903">
        <ele>100.7</ele>
        <time>2018-04-02T08:22:22Z</time>
      </trkpt>
      <trkpt lat="43.22827" lon="5.54892">
        <ele>100.5</ele>
        <time>2018-04-02T08:22:30Z</time>
      </trkpt>
      <trkpt lat="43.22819" lon="5.54884">
        <ele>100.3</ele>
        <time>2018-04-02T08:22:37Z</time>
      </trkpt>
      <trkpt lat="43.22812" lon="5.54876">
        <ele>100.2</ele>
        <time>2018-04-02T08:22:44Z</time>
      </trkpt>
      <trkpt lat="43.22803" lon="5.54868">
        <ele>100.1</ele>
        <time>2018-04-02T08:22:52Z</time>
      </trkpt>
      <trkpt lat="43.22787" lon="5.54855">
        <ele>100</ele>
        <time>2018-04-02T08:23:05Z</time>
      </trkpt>
      <trkpt lat="43.2278" lon="5.54845">
        <ele>99.8</ele>
        <time>2018-04-02T08:23:12Z</time>
      </trkpt>
      <trkpt lat="43.22772" lon="5.54837">
        <ele>99.7</ele>
        <time>2018-04-02T08:23:19Z</time>
      </trkpt>
      <trkpt lat="43.22764" lon="5.5483">
        <ele>98.7</ele>
        <time>2018-04-02T08:23:26Z</time>
      </trkpt>
      <trkpt lat="43.22749" lon="5.54812">
        <ele>99.1</ele>
        <time>2018-04-02T08:23:41Z</time>
      </trkpt>
      <trkpt lat="43.22735" lon="5.54796">
        <ele>99</ele>
        <time>2018-04-02T08:23:56Z</time>
      </trkpt>
      <trkpt lat="43.22725" lon="5.54791">
        <ele>99</ele>
        <time>2018-04-02T08:24:03Z</time>
      </trkpt>
      <trkpt lat="43.22719" lon="5.54783">
        <ele>98.9</ele>
        <time>2018-04-02T08:24:11Z</time>
      </trkpt>
      <trkpt lat="43.22712" lon="5.54774">
        <ele>98.8</ele>
        <time>2018-04-02T08:24:19Z</time>
      </trkpt>
      <trkpt lat="43.22704" lon="5.54767">
        <ele>98.7</ele>
        <time>2018-04-02T08:24:26Z</time>
      </trkpt>
      <trkpt lat="43.22563" lon="5.54634">
        <ele>93.3</ele>
        <time>2018-04-02T08:26:29Z</time>
      </trkpt>
      <trkpt lat="43.22555" lon="5.54625">
        <ele>93.1</ele>
        <time>2018-04-02T08:26:36Z</time>
      </trkpt>
      <trkpt lat="43.22542" lon="5.54607">
        <ele>92.8</ele>
        <time>2018-04-02T08:26:52Z</time>
      </trkpt>
      <trkpt lat="43.22534" lon="5.54599">
        <ele>92.7</ele>
        <time>2018-04-02T08:26:59Z</time>
      </trkpt>
      <trkpt lat="43.22519" lon="5.54583">
        <ele>91.9</ele>
        <time>2018-04-02T08:27:13Z</time>
      </trkpt>
      <trkpt lat="43.22504" lon="5.54565">
        <ele>91.8</ele>
        <time>2018-04-02T08:27:28Z</time>
      </trkpt>
      <trkpt lat="43.22499" lon="5.54554">
        <ele>93</ele>
        <time>2018-04-02T08:27:36Z</time>
      </trkpt>
      <trkpt lat="43.22491" lon="5.54545">
        <ele>93</ele>
        <time>2018-04-02T08:27:43Z</time>
      </trkpt>
      <trkpt lat="43.22482" lon="5.54537">
        <ele>93.1</ele>
        <time>2018-04-02T08:27:50Z</time>
      </trkpt>
      <trkpt lat="43.22451" lon="5.54509">
        <ele>93.1</ele>
        <time>2018-04-02T08:28:14Z</time>
      </trkpt>
      <trkpt lat="43.22414" lon="5.54468">
        <ele>91.9</ele>
        <time>2018-04-02T08:28:53Z</time>
      </trkpt>
      <trkpt lat="43.22408" lon="5.54458">
        <ele>91.8</ele>
        <time>2018-04-02T08:29:00Z</time>
      </trkpt>
      <trkpt lat="43.22399" lon="5.54456">
        <ele>91.8</ele>
        <time>2018-04-02T08:29:08Z</time>
      </trkpt>
      <trkpt lat="43.22389" lon="5.54458">
        <ele>91.9</ele>
        <time>2018-04-02T08:29:17Z</time>
      </trkpt>
      <trkpt lat="43.22381" lon="5.54453">
        <ele>91.9</ele>
        <time>2018-04-02T08:29:24Z</time>
      </trkpt>
      <trkpt lat="43.22372" lon="5.54446">
        <ele>91.8</ele>
        <time>2018-04-02T08:29:33Z</time>
      </trkpt>
      <trkpt lat="43.22363" lon="5.54443">
        <ele>91.7</ele>
        <time>2018-04-02T08:29:43Z</time>
      </trkpt>
      <trkpt lat="43.22343" lon="5.54442">
        <ele>91.5</ele>
        <time>2018-04-02T08:29:56Z</time>
      </trkpt>
      <trkpt lat="43.22334" lon="5.54437">
        <ele>91.3</ele>
        <time>2018-04-02T08:30:03Z</time>
      </trkpt>
      <trkpt lat="43.22324" lon="5.54431">
        <ele>91.3</ele>
        <time>2018-04-02T08:30:10Z</time>
      </trkpt>
      <trkpt lat="43.22316" lon="5.54424">
        <ele>91.2</ele>
        <time>2018-04-02T08:30:26Z</time>
      </trkpt>
      <trkpt lat="43.22307" lon="5.5442">
        <ele>91.4</ele>
        <time>2018-04-02T08:30:35Z</time>
      </trkpt>
      <trkpt lat="43.22299" lon="5.54414">
        <ele>90.1</ele>
        <time>2018-04-02T08:30:43Z</time>
      </trkpt>
      <trkpt lat="43.22294" lon="5.54402">
        <ele>90.1</ele>
        <time>2018-04-02T08:30:52Z</time>
      </trkpt>
      <trkpt lat="43.22286" lon="5.54397">
        <ele>90</ele>
        <time>2018-04-02T08:31:00Z</time>
      </trkpt>
      <trkpt lat="43.22276" lon="5.54394">
        <ele>89.8</ele>
        <time>2018-04-02T08:31:07Z</time>
      </trkpt>
      <trkpt lat="43.22258" lon="5.54387">
        <ele>89.5</ele>
        <time>2018-04-02T08:31:24Z</time>
      </trkpt>
      <trkpt lat="43.22249" lon="5.54382">
        <ele>86.4</ele>
        <time>2018-04-02T08:31:35Z</time>
      </trkpt>
      <trkpt lat="43.22239" lon="5.54378">
        <ele>86.2</ele>
        <time>2018-04-02T08:31:42Z</time>
      </trkpt>
      <trkpt lat="43.2223" lon="5.54375">
        <ele>85.9</ele>
        <time>2018-04-02T08:31:49Z</time>
      </trkpt>
      <trkpt lat="43.22221" lon="5.54374">
        <ele>85.6</ele>
        <time>2018-04-02T08:31:55Z</time>
      </trkpt>
      <trkpt lat="43.22212" lon="5.54372">
        <ele>85.3</ele>
        <time>2018-04-02T08:32:02Z</time>
      </trkpt>
      <trkpt lat="43.22204" lon="5.54367">
        <ele>84.9</ele>
        <time>2018-04-02T08:32:09Z</time>
      </trkpt>
      <trkpt lat="43.22196" lon="5.54361">
        <ele>84.2</ele>
        <time>2018-04-02T08:32:16Z</time>
      </trkpt>
      <trkpt lat="43.22188" lon="5.54353">
        <ele>83.3</ele>
        <time>2018-04-02T08:32:25Z</time>
      </trkpt>
      <trkpt lat="43.2218" lon="5.54348">
        <ele>82.2</ele>
        <time>2018-04-02T08:32:32Z</time>
      </trkpt>
      <trkpt lat="43.22171" lon="5.54341">
        <ele>80.3</ele>
        <time>2018-04-02T08:32:39Z</time>
      </trkpt>
      <trkpt lat="43.22153" lon="5.5433">
        <ele>76.8</ele>
        <time>2018-04-02T08:32:54Z</time>
      </trkpt>
      <trkpt lat="43.22144" lon="5.54327">
        <ele>76.3</ele>
        <time>2018-04-02T08:33:01Z</time>
      </trkpt>
      <trkpt lat="43.22126" lon="5.54323">
        <ele>75.7</ele>
        <time>2018-04-02T08:33:15Z</time>
      </trkpt>
      <trkpt lat="43.22078" lon="5.54309">
        <ele>71.8</ele>
        <time>2018-04-02T08:33:45Z</time>
      </trkpt>
      <trkpt lat="43.22069" lon="5.54305">
        <ele>71.2</ele>
        <time>2018-04-02T08:33:52Z</time>
      </trkpt>
      <trkpt lat="43.2206" lon="5.543">
        <ele>70.6</ele>
        <time>2018-04-02T08:33:58Z</time>
      </trkpt>
      <trkpt lat="43.22051" lon="5.54298">
        <ele>70.1</ele>
        <time>2018-04-02T08:34:04Z</time>
      </trkpt>
      <trkpt lat="43.22042" lon="5.54296">
        <ele>69.6</ele>
        <time>2018-04-02T08:34:10Z</time>
      </trkpt>
      <trkpt lat="43.22034" lon="5.54292">
        <ele>69.1</ele>
        <time>2018-04-02T08:34:18Z</time>
      </trkpt>
      <trkpt lat="43.22029" lon="5.54281">
        <ele>68.5</ele>
        <time>2018-04-02T08:34:27Z</time>
      </trkpt>
      <trkpt lat="43.22023" lon="5.54269">
        <ele>67.7</ele>
        <time>2018-04-02T08:34:34Z</time>
      </trkpt>
      <trkpt lat="43.22016" lon="5.54259">
        <ele>66.5</ele>
        <time>2018-04-02T08:34:40Z</time>
      </trkpt>
      <trkpt lat="43.22011" lon="5.54248">
        <ele>63.9</ele>
        <time>2018-04-02T08:34:46Z</time>
      </trkpt>
      <trkpt lat="43.22005" lon="5.54238">
        <ele>63.9</ele>
        <time>2018-04-02T08:34:52Z</time>
      </trkpt>
      <trkpt lat="43.22001" lon="5.54225">
        <ele>64</ele>
        <time>2018-04-02T08:34:59Z</time>
      </trkpt>
      <trkpt lat="43.22" lon="5.54212">
        <ele>58.4</ele>
        <time>2018-04-02T08:35:06Z</time>
      </trkpt>
      <trkpt lat="43.21992" lon="5.54206">
        <ele>58</ele>
        <time>2018-04-02T08:35:13Z</time>
      </trkpt>
      <trkpt lat="43.21984" lon="5.54199">
        <ele>57.6</ele>
        <time>2018-04-02T08:35:26Z</time>
      </trkpt>
      <trkpt lat="43.21977" lon="5.54189">
        <ele>57.2</ele>
        <time>2018-04-02T08:35:34Z</time>
      </trkpt>
      <trkpt lat="43.2197" lon="5.5418">
        <ele>56.9</ele>
        <time>2018-04-02T08:35:43Z</time>
      </trkpt>
      <trkpt lat="43.21962" lon="5.54172">
        <ele>56.4</ele>
        <time>2018-04-02T08:35:51Z</time>
      </trkpt>
      <trkpt lat="43.21954" lon="5.54165">
        <ele>53.4</ele>
        <time>2018-04-02T08:35:59Z</time>
      </trkpt>
      <trkpt lat="43.21937" lon="5.54153">
        <ele>52.5</ele>
        <time>2018-04-02T08:36:16Z</time>
      </trkpt>
      <trkpt lat="43.2193" lon="5.54144">
        <ele>52.2</ele>
        <time>2018-04-02T08:36:26Z</time>
      </trkpt>
      <trkpt lat="43.21902" lon="5.54108">
        <ele>45.5</ele>
        <time>2018-04-02T08:37:01Z</time>
      </trkpt>
      <trkpt lat="43.21896" lon="5.54098">
        <ele>45.2</ele>
        <time>2018-04-02T08:37:11Z</time>
      </trkpt>
      <trkpt lat="43.21888" lon="5.5409">
        <ele>44.7</ele>
        <time>2018-04-02T08:37:19Z</time>
      </trkpt>
      <trkpt lat="43.2188" lon="5.54083">
        <ele>42</ele>
        <time>2018-04-02T08:37:27Z</time>
      </trkpt>
      <trkpt lat="43.21863" lon="5.54071">
        <ele>40.7</ele>
        <time>2018-04-02T08:37:54Z</time>
      </trkpt>
      <trkpt lat="43.21853" lon="5.54066">
        <ele>40.2</ele>
        <time>2018-04-02T08:38:02Z</time>
      </trkpt>
      <trkpt lat="43.21836" lon="5.54056">
        <ele>39.6</ele>
        <time>2018-04-02T08:38:18Z</time>
      </trkpt>
      <trkpt lat="43.21826" lon="5.54053">
        <ele>33.2</ele>
        <time>2018-04-02T08:38:27Z</time>
      </trkpt>
      <trkpt lat="43.21817" lon="5.54053">
        <ele>32.7</ele>
        <time>2018-04-02T08:38:35Z</time>
      </trkpt>
      <trkpt lat="43.21807" lon="5.54052">
        <ele>31.9</ele>
        <time>2018-04-02T08:38:50Z</time>
      </trkpt>
      <trkpt lat="43.21798" lon="5.54054">
        <ele>31.3</ele>
        <time>2018-04-02T08:38:56Z</time>
      </trkpt>
      <trkpt lat="43.21791" lon="5.54063">
        <ele>30.9</ele>
        <time>2018-04-02T08:39:05Z</time>
      </trkpt>
      <trkpt lat="43.21785" lon="5.54074">
        <ele>30.4</ele>
        <time>2018-04-02T08:39:13Z</time>
      </trkpt>
      <trkpt lat="43.21781" lon="5.54086">
        <ele>31.4</ele>
        <time>2018-04-02T08:39:21Z</time>
      </trkpt>
      <trkpt lat="43.21779" lon="5.54099">
        <ele>31.4</ele>
        <time>2018-04-02T08:39:31Z</time>
      </trkpt>
      <trkpt lat="43.21774" lon="5.54111">
        <ele>31.3</ele>
        <time>2018-04-02T08:39:40Z</time>
      </trkpt>
      <trkpt lat="43.2176" lon="5.54146">
        <ele>30.2</ele>
        <time>2018-04-02T08:40:06Z</time>
      </trkpt>
      <trkpt lat="43.2175" lon="5.54147">
        <ele>29.7</ele>
        <time>2018-04-02T08:40:15Z</time>
      </trkpt>
      <trkpt lat="43.21741" lon="5.54145">
        <ele>24.7</ele>
        <time>2018-04-02T08:40:22Z</time>
      </trkpt>
      <trkpt lat="43.21712" lon="5.54141">
        <ele>23.3</ele>
        <time>2018-04-02T08:40:42Z</time>
      </trkpt>
      <trkpt lat="43.21703" lon="5.54138">
        <ele>22.9</ele>
        <time>2018-04-02T08:40:50Z</time>
      </trkpt>
      <trkpt lat="43.21693" lon="5.54136">
        <ele>22.5</ele>
        <time>2018-04-02T08:40:57Z</time>
      </trkpt>
      <trkpt lat="43.21674" lon="5.54135">
        <ele>22</ele>
        <time>2018-04-02T08:41:21Z</time>
      </trkpt>
      <trkpt lat="43.21655" lon="5.54129">
        <ele>18.8</ele>
        <time>2018-04-02T08:41:38Z</time>
      </trkpt>
      <trkpt lat="43.21646" lon="5.54127">
        <ele>18.6</ele>
        <time>2018-04-02T08:41:47Z</time>
      </trkpt>
      <trkpt lat="43.21637" lon="5.54121">
        <ele>18.3</ele>
        <time>2018-04-02T08:41:56Z</time>
      </trkpt>
      <trkpt lat="43.21619" lon="5.54112">
        <ele>17.9</ele>
        <time>2018-04-02T08:42:11Z</time>
      </trkpt>
      <trkpt lat="43.21611" lon="5.54106">
        <ele>17.5</ele>
        <time>2018-04-02T08:42:18Z</time>
      </trkpt>
      <trkpt lat="43.21603" lon="5.541">
        <ele>17.1</ele>
        <time>2018-04-02T08:42:26Z</time>
      </trkpt>
      <trkpt lat="43.21595" lon="5.54092">
        <ele>16.4</ele>
        <time>2018-04-02T08:42:35Z</time>
      </trkpt>
      <trkpt lat="43.21581" lon="5.54075">
        <ele>14.4</ele>
        <time>2018-04-02T08:42:52Z</time>
      </trkpt>
      <trkpt lat="43.21572" lon="5.54068">
        <ele>13.9</ele>
        <time>2018-04-02T08:43:00Z</time>
      </trkpt>
      <trkpt lat="43.21546" lon="5.5405">
        <ele>13.1</ele>
        <time>2018-04-02T08:43:25Z</time>
      </trkpt>
      <trkpt lat="43.21529" lon="5.54042">
        <ele>12.9</ele>
        <time>2018-04-02T08:43:41Z</time>
      </trkpt>
      <trkpt lat="43.21524" lon="5.5403">
        <ele>12.7</ele>
        <time>2018-04-02T08:43:51Z</time>
      </trkpt>
      <trkpt lat="43.21517" lon="5.54021">
        <ele>12.6</ele>
        <time>2018-04-02T08:44:00Z</time>
      </trkpt>
      <trkpt lat="43.21508" lon="5.54015">
        <ele>12.4</ele>
        <time>2018-04-02T08:44:09Z</time>
      </trkpt>
      <trkpt lat="43.21499" lon="5.54011">
        <ele>11.6</ele>
        <time>2018-04-02T08:44:17Z</time>
      </trkpt>
      <trkpt lat="43.21491" lon="5.54004">
        <ele>11.6</ele>
        <time>2018-04-02T08:44:26Z</time>
      </trkpt>
      <trkpt lat="43.21485" lon="5.53994">
        <ele>11.3</ele>
        <time>2018-04-02T08:44:36Z</time>
      </trkpt>
      <trkpt lat="43.21477" lon="5.53987">
        <ele>11</ele>
        <time>2018-04-02T08:44:46Z</time>
      </trkpt>
      <trkpt lat="43.21471" lon="5.53976">
        <ele>10.8</ele>
        <time>2018-04-02T08:45:00Z</time>
      </trkpt>
      <trkpt lat="43.21464" lon="5.53968">
        <ele>10.6</ele>
        <time>2018-04-02T08:45:13Z</time>
      </trkpt>
      <trkpt lat="43.21456" lon="5.53963">
        <ele>10.5</ele>
        <time>2018-04-02T08:45:29Z</time>
      </trkpt>
      <trkpt lat="43.21449" lon="5.53954">
        <ele>10.3</ele>
        <time>2018-04-02T08:45:51Z</time>
      </trkpt>
      <trkpt lat="43.21441" lon="5.53951">
        <ele>10.2</ele>
        <time>2018-04-02T08:46:00Z</time>
      </trkpt>
      <trkpt lat="43.21432" lon="5.53946">
        <ele>10</ele>
        <time>2018-04-02T08:46:38Z</time>
      </trkpt>
      <trkpt lat="43.21423" lon="5.53949">
        <ele>9.9</ele>
        <time>2018-04-02T08:46:47Z</time>
      </trkpt>
      <trkpt lat="43.21415" lon="5.53943">
        <ele>10.7</ele>
        <time>2018-04-02T08:47:05Z</time>
      </trkpt>
      <trkpt lat="43.21407" lon="5.53933">
        <ele>10.5</ele>
        <time>2018-04-02T08:47:13Z</time>
      </trkpt>
      <trkpt lat="43.214" lon="5.53925">
        <ele>10.5</ele>
        <time>2018-04-02T08:47:22Z</time>
      </trkpt>
      <trkpt lat="43.21393" lon="5.53915">
        <ele>8.5</ele>
        <time>2018-04-02T08:47:29Z</time>
      </trkpt>
      <trkpt lat="43.21387" lon="5.53905">
        <ele>8.4</ele>
        <time>2018-04-02T08:47:39Z</time>
      </trkpt>
      <trkpt lat="43.21379" lon="5.53898">
        <ele>8.4</ele>
        <time>2018-04-02T08:47:48Z</time>
      </trkpt>
      <trkpt lat="43.21372" lon="5.53908">
        <ele>8.5</ele>
        <time>2018-04-02T08:48:08Z</time>
      </trkpt>
      <trkpt lat="43.21369" lon="5.5392">
        <ele>11.3</ele>
        <time>2018-04-02T08:48:24Z</time>
      </trkpt>
      <trkpt lat="43.21363" lon="5.53929">
        <ele>11.5</ele>
        <time>2018-04-02T08:48:50Z</time>
      </trkpt>
      <trkpt lat="43.21355" lon="5.53937">
        <ele>11.8</ele>
        <time>2018-04-02T08:49:15Z</time>
      </trkpt>
      <trkpt lat="43.21359" lon="5.53925">
        <ele>11.4</ele>
        <time>2018-04-02T08:49:26Z</time>
      </trkpt>
      <trkpt lat="43.21365" lon="5.53915">
        <ele>8.7</ele>
        <time>2018-04-02T08:49:39Z</time>
      </trkpt>
      <trkpt lat="43.21372" lon="5.53893">
        <ele>8.3</ele>
        <time>2018-04-02T08:49:57Z</time>
      </trkpt>
      <trkpt lat="43.21378" lon="5.53884">
        <ele>8.2</ele>
        <time>2018-04-02T08:50:23Z</time>
      </trkpt>
      <trkpt lat="43.21379" lon="5.53871">
        <ele>7.9</ele>
        <time>2018-04-02T08:50:33Z</time>
      </trkpt>
      <trkpt lat="43.21376" lon="5.53859">
        <ele>7.7</ele>
        <time>2018-04-02T08:52:01Z</time>
      </trkpt>
      <trkpt lat="43.21367" lon="5.53859">
        <ele>7.7</ele>
        <time>2018-04-02T08:52:49Z</time>
      </trkpt>
      <trkpt lat="43.21358" lon="5.53858">
        <ele>7.6</ele>
        <time>2018-04-02T08:53:00Z</time>
      </trkpt>
      <trkpt lat="43.21348" lon="5.53854">
        <ele>7.4</ele>
        <time>2018-04-02T08:53:12Z</time>
      </trkpt>
      <trkpt lat="43.2134" lon="5.5385">
        <ele>7.1</ele>
        <time>2018-04-02T08:53:25Z</time>
      </trkpt>
      <trkpt lat="43.21331" lon="5.53845">
        <ele>7.9</ele>
        <time>2018-04-02T08:53:36Z</time>
      </trkpt>
      <trkpt lat="43.2132" lon="5.53842">
        <ele>8.3</ele>
        <time>2018-04-02T08:53:54Z</time>
      </trkpt>
      <trkpt lat="43.21312" lon="5.53848">
        <ele>9.2</ele>
        <time>2018-04-02T08:54:03Z</time>
      </trkpt>
      <trkpt lat="43.2131" lon="5.5386">
        <ele>9.9</ele>
        <time>2018-04-02T08:54:19Z</time>
      </trkpt>
      <trkpt lat="43.21312" lon="5.53873">
        <ele>10.6</ele>
        <time>2018-04-02T08:54:27Z</time>
      </trkpt>
      <trkpt lat="43.21315" lon="5.53885">
        <ele>11</ele>
        <time>2018-04-02T08:54:33Z</time>
      </trkpt>
      <trkpt lat="43.21318" lon="5.53898">
        <ele>11.2</ele>
        <time>2018-04-02T08:54:41Z</time>
      </trkpt>
      <trkpt lat="43.21327" lon="5.53901">
        <ele>10.8</ele>
        <time>2018-04-02T08:54:51Z</time>
      </trkpt>
      <trkpt lat="43.21336" lon="5.53901">
        <ele>9</ele>
        <time>2018-04-02T08:55:00Z</time>
      </trkpt>
      <trkpt lat="43.21346" lon="5.53904">
        <ele>8.9</ele>
        <time>2018-04-02T08:55:09Z</time>
      </trkpt>
      <trkpt lat="43.21356" lon="5.53903">
        <ele>8.7</ele>
        <time>2018-04-02T08:55:17Z</time>
      </trkpt>
      <trkpt lat="43.21363" lon="5.53914">
        <ele>8.7</ele>
        <time>2018-04-02T08:55:29Z</time>
      </trkpt>
      <trkpt lat="43.21367" lon="5.53925">
        <ele>11.4</ele>
        <time>2018-04-02T08:55:37Z</time>
      </trkpt>
      <trkpt lat="43.21368" lon="5.53938">
        <ele>11.8</ele>
        <time>2018-04-02T08:55:51Z</time>
      </trkpt>
      <trkpt lat="43.21371" lon="5.5395">
        <ele>12.1</ele>
        <time>2018-04-02T08:56:01Z</time>
      </trkpt>
      <trkpt lat="43.21376" lon="5.53962">
        <ele>12.3</ele>
        <time>2018-04-02T08:56:11Z</time>
      </trkpt>
      <trkpt lat="43.21377" lon="5.53974">
        <ele>12.6</ele>
        <time>2018-04-02T08:56:23Z</time>
      </trkpt>
      <trkpt lat="43.21377" lon="5.53987">
        <ele>12.9</ele>
        <time>2018-04-02T08:56:31Z</time>
      </trkpt>
      <trkpt lat="43.21379" lon="5.53999">
        <ele>12.9</ele>
        <time>2018-04-02T08:56:39Z</time>
      </trkpt>
      <trkpt lat="43.21384" lon="5.5401">
        <ele>15.2</ele>
        <time>2018-04-02T08:57:02Z</time>
      </trkpt>
      <trkpt lat="43.21385" lon="5.54025">
        <ele>15.5</ele>
        <time>2018-04-02T08:58:01Z</time>
      </trkpt>
      <trkpt lat="43.21389" lon="5.54036">
        <ele>15.5</ele>
        <time>2018-04-02T08:58:09Z</time>
      </trkpt>
      <trkpt lat="43.21392" lon="5.5405">
        <ele>15.4</ele>
        <time>2018-04-02T08:58:18Z</time>
      </trkpt>
      <trkpt lat="43.21389" lon="5.54062">
        <ele>15.6</ele>
        <time>2018-04-02T08:58:27Z</time>
      </trkpt>
      <trkpt lat="43.21381" lon="5.54086">
        <ele>17.3</ele>
        <time>2018-04-02T08:58:48Z</time>
      </trkpt>
      <trkpt lat="43.21379" lon="5.54099">
        <ele>17.6</ele>
        <time>2018-04-02T08:58:58Z</time>
      </trkpt>
      <trkpt lat="43.21375" lon="5.54128">
        <ele>18</ele>
        <time>2018-04-02T09:00:04Z</time>
      </trkpt>
      <trkpt lat="43.21377" lon="5.54116">
        <ele>17.9</ele>
        <time>2018-04-02T09:00:20Z</time>
      </trkpt>
      <trkpt lat="43.21375" lon="5.54103">
        <ele>18.1</ele>
        <time>2018-04-02T09:00:44Z</time>
      </trkpt>
      <trkpt lat="43.21368" lon="5.54093">
        <ele>19.1</ele>
        <time>2018-04-02T09:00:52Z</time>
      </trkpt>
      <trkpt lat="43.21374" lon="5.54081">
        <ele>17.5</ele>
        <time>2018-04-02T09:01:02Z</time>
      </trkpt>
      <trkpt lat="43.21373" lon="5.54069">
        <ele>17.5</ele>
        <time>2018-04-02T09:01:10Z</time>
      </trkpt>
      <trkpt lat="43.21378" lon="5.54058">
        <ele>16.8</ele>
        <time>2018-04-02T09:01:16Z</time>
      </trkpt>
      <trkpt lat="43.21381" lon="5.54046">
        <ele>16.3</ele>
        <time>2018-04-02T09:01:25Z</time>
      </trkpt>
      <trkpt lat="43.21373" lon="5.54039">
        <ele>16.9</ele>
        <time>2018-04-02T09:01:39Z</time>
      </trkpt>
      <trkpt lat="43.21367" lon="5.5403">
        <ele>17.2</ele>
        <time>2018-04-02T09:01:58Z</time>
      </trkpt>
      <trkpt lat="43.2136" lon="5.54022">
        <ele>17.7</ele>
        <time>2018-04-02T09:02:11Z</time>
      </trkpt>
      <trkpt lat="43.21359" lon="5.54007">
        <ele>17.8</ele>
        <time>2018-04-02T09:02:19Z</time>
      </trkpt>
      <trkpt lat="43.21362" lon="5.53994">
        <ele>14.6</ele>
        <time>2018-04-02T09:02:25Z</time>
      </trkpt>
      <trkpt lat="43.21367" lon="5.53981">
        <ele>13.6</ele>
        <time>2018-04-02T09:02:31Z</time>
      </trkpt>
      <trkpt lat="43.21372" lon="5.5397">
        <ele>12.8</ele>
        <time>2018-04-02T09:02:37Z</time>
      </trkpt>
      <trkpt lat="43.21376" lon="5.53959">
        <ele>12.2</ele>
        <time>2018-04-02T09:02:44Z</time>
      </trkpt>
      <trkpt lat="43.2137" lon="5.5395">
        <ele>12.1</ele>
        <time>2018-04-02T09:02:58Z</time>
      </trkpt>
      <trkpt lat="43.21364" lon="5.53939">
        <ele>11.9</ele>
        <time>2018-04-02T09:03:09Z</time>
      </trkpt>
      <trkpt lat="43.21369" lon="5.53927">
        <ele>11.5</ele>
        <time>2018-04-02T09:03:16Z</time>
      </trkpt>
      <trkpt lat="43.21373" lon="5.53915">
        <ele>8.6</ele>
        <time>2018-04-02T09:03:23Z</time>
      </trkpt>
      <trkpt lat="43.21378" lon="5.53904">
        <ele>8.4</ele>
        <time>2018-04-02T09:03:30Z</time>
      </trkpt>
      <trkpt lat="43.2138" lon="5.53892">
        <ele>8.3</ele>
        <time>2018-04-02T09:03:38Z</time>
      </trkpt>
      <trkpt lat="43.21383" lon="5.53878">
        <ele>8.1</ele>
        <time>2018-04-02T09:03:48Z</time>
      </trkpt>
      <trkpt lat="43.21384" lon="5.53866">
        <ele>7.8</ele>
        <time>2018-04-02T09:03:59Z</time>
      </trkpt>
      <trkpt lat="43.21388" lon="5.53855">
        <ele>7.7</ele>
        <time>2018-04-02T09:04:09Z</time>
      </trkpt>
      <trkpt lat="43.21392" lon="5.53843">
        <ele>7.5</ele>
        <time>2018-04-02T09:04:17Z</time>
      </trkpt>
      <trkpt lat="43.21395" lon="5.53831">
        <ele>5.8</ele>
        <time>2018-04-02T09:04:25Z</time>
      </trkpt>
      <trkpt lat="43.21394" lon="5.53818">
        <ele>5.5</ele>
        <time>2018-04-02T09:04:34Z</time>
      </trkpt>
      <trkpt lat="43.21389" lon="5.53807">
        <ele>5.2</ele>
        <time>2018-04-02T09:04:48Z</time>
      </trkpt>
      <trkpt lat="43.21381" lon="5.53803">
        <ele>5</ele>
        <time>2018-04-02T09:05:11Z</time>
      </trkpt>
      <trkpt lat="43.21373" lon="5.53797">
        <ele>4.8</ele>
        <time>2018-04-02T09:06:04Z</time>
      </trkpt>
      <trkpt lat="43.21377" lon="5.53809">
        <ele>5.1</ele>
        <time>2018-04-02T09:07:21Z</time>
      </trkpt>
      <trkpt lat="43.21384" lon="5.53816">
        <ele>5.3</ele>
        <time>2018-04-02T09:07:33Z</time>
      </trkpt>
      <trkpt lat="43.21392" lon="5.53822">
        <ele>5.6</ele>
        <time>2018-04-02T09:07:46Z</time>
      </trkpt>
      <trkpt lat="43.21402" lon="5.53821">
        <ele>5.8</ele>
        <time>2018-04-02T09:08:02Z</time>
      </trkpt>
      <trkpt lat="43.21411" lon="5.53814">
        <ele>5.8</ele>
        <time>2018-04-02T09:08:13Z</time>
      </trkpt>
      <trkpt lat="43.21417" lon="5.53805">
        <ele>7.6</ele>
        <time>2018-04-02T09:08:23Z</time>
      </trkpt>
      <trkpt lat="43.21421" lon="5.53793">
        <ele>7.4</ele>
        <time>2018-04-02T09:08:33Z</time>
      </trkpt>
      <trkpt lat="43.21427" lon="5.53783">
        <ele>7.3</ele>
        <time>2018-04-02T09:08:41Z</time>
      </trkpt>
      <trkpt lat="43.21434" lon="5.53774">
        <ele>7.1</ele>
        <time>2018-04-02T09:08:52Z</time>
      </trkpt>
      <trkpt lat="43.21456" lon="5.53748">
        <ele>6.6</ele>
        <time>2018-04-02T09:09:19Z</time>
      </trkpt>
      <trkpt lat="43.21462" lon="5.53737">
        <ele>6.8</ele>
        <time>2018-04-02T09:09:28Z</time>
      </trkpt>
      <trkpt lat="43.21468" lon="5.53727">
        <ele>7.1</ele>
        <time>2018-04-02T09:09:37Z</time>
      </trkpt>
      <trkpt lat="43.21476" lon="5.53718">
        <ele>7.3</ele>
        <time>2018-04-02T09:09:47Z</time>
      </trkpt>
      <trkpt lat="43.21481" lon="5.53708">
        <ele>7.4</ele>
        <time>2018-04-02T09:09:55Z</time>
      </trkpt>
      <trkpt lat="43.21488" lon="5.53699">
        <ele>7.6</ele>
        <time>2018-04-02T09:10:05Z</time>
      </trkpt>
      <trkpt lat="43.21492" lon="5.53688">
        <ele>8</ele>
        <time>2018-04-02T09:10:15Z</time>
      </trkpt>
      <trkpt lat="43.21492" lon="5.53673">
        <ele>8.8</ele>
        <time>2018-04-02T09:10:37Z</time>
      </trkpt>
      <trkpt lat="43.21484" lon="5.53666">
        <ele>8.6</ele>
        <time>2018-04-02T09:10:52Z</time>
      </trkpt>
      <trkpt lat="43.21482" lon="5.53654">
        <ele>8.4</ele>
        <time>2018-04-02T09:11:08Z</time>
      </trkpt>
      <trkpt lat="43.21478" lon="5.53642">
        <ele>8.1</ele>
        <time>2018-04-02T09:11:18Z</time>
      </trkpt>
      <trkpt lat="43.2148" lon="5.53628">
        <ele>8.3</ele>
        <time>2018-04-02T09:11:26Z</time>
      </trkpt>
      <trkpt lat="43.21482" lon="5.53615">
        <ele>8.8</ele>
        <time>2018-04-02T09:11:34Z</time>
      </trkpt>
      <trkpt lat="43.21479" lon="5.53604">
        <ele>9.2</ele>
        <time>2018-04-02T09:11:46Z</time>
      </trkpt>
      <trkpt lat="43.21479" lon="5.53589">
        <ele>9.9</ele>
        <time>2018-04-02T09:11:53Z</time>
      </trkpt>
      <trkpt lat="43.21455" lon="5.53343">
        <ele>25.6</ele>
        <time>2018-04-02T09:15:50Z</time>
      </trkpt>
      <trkpt lat="43.21454" lon="5.53331">
        <ele>30.5</ele>
        <time>2018-04-02T09:16:05Z</time>
      </trkpt>
      <trkpt lat="43.21446" lon="5.53325">
        <ele>29.6</ele>
        <time>2018-04-02T09:16:15Z</time>
      </trkpt>
      <trkpt lat="43.21436" lon="5.53321">
        <ele>28.4</ele>
        <time>2018-04-02T09:16:26Z</time>
      </trkpt>
      <trkpt lat="43.21409" lon="5.53311">
        <ele>20.6</ele>
        <time>2018-04-02T09:16:47Z</time>
      </trkpt>
      <trkpt lat="43.214" lon="5.53306">
        <ele>20.2</ele>
        <time>2018-04-02T09:16:55Z</time>
      </trkpt>
      <trkpt lat="43.21395" lon="5.53295">
        <ele>20.2</ele>
        <time>2018-04-02T09:17:05Z</time>
      </trkpt>
      <trkpt lat="43.21394" lon="5.53283">
        <ele>20.8</ele>
        <time>2018-04-02T09:17:15Z</time>
      </trkpt>
      <trkpt lat="43.21391" lon="5.53271">
        <ele>21.3</ele>
        <time>2018-04-02T09:17:25Z</time>
      </trkpt>
      <trkpt lat="43.21391" lon="5.53258">
        <ele>22.1</ele>
        <time>2018-04-02T09:17:35Z</time>
      </trkpt>
      <trkpt lat="43.21389" lon="5.53245">
        <ele>24.8</ele>
        <time>2018-04-02T09:17:45Z</time>
      </trkpt>
      <trkpt lat="43.21385" lon="5.53234">
        <ele>24.2</ele>
        <time>2018-04-02T09:17:55Z</time>
      </trkpt>
      <trkpt lat="43.21379" lon="5.53223">
        <ele>23.6</ele>
        <time>2018-04-02T09:18:05Z</time>
      </trkpt>
      <trkpt lat="43.21374" lon="5.53212">
        <ele>23.3</ele>
        <time>2018-04-02T09:18:15Z</time>
      </trkpt>
      <trkpt lat="43.21367" lon="5.53204">
        <ele>22.7</ele>
        <time>2018-04-02T09:18:22Z</time>
      </trkpt>
      <trkpt lat="43.2136" lon="5.53195">
        <ele>21.9</ele>
        <time>2018-04-02T09:18:32Z</time>
      </trkpt>
      <trkpt lat="43.21354" lon="5.53184">
        <ele>20.9</ele>
        <time>2018-04-02T09:18:40Z</time>
      </trkpt>
      <trkpt lat="43.2135" lon="5.53174">
        <ele>19.7</ele>
        <time>2018-04-02T09:18:48Z</time>
      </trkpt>
      <trkpt lat="43.21344" lon="5.53163">
        <ele>19.7</ele>
        <time>2018-04-02T09:18:58Z</time>
      </trkpt>
      <trkpt lat="43.21342" lon="5.53151">
        <ele>21.3</ele>
        <time>2018-04-02T09:19:12Z</time>
      </trkpt>
      <trkpt lat="43.21341" lon="5.53138">
        <ele>23.1</ele>
        <time>2018-04-02T09:19:21Z</time>
      </trkpt>
      <trkpt lat="43.21338" lon="5.53126">
        <ele>23.7</ele>
        <time>2018-04-02T09:19:31Z</time>
      </trkpt>
      <trkpt lat="43.21332" lon="5.53116">
        <ele>14.7</ele>
        <time>2018-04-02T09:19:44Z</time>
      </trkpt>
      <trkpt lat="43.21324" lon="5.53109">
        <ele>14.8</ele>
        <time>2018-04-02T09:19:54Z</time>
      </trkpt>
      <trkpt lat="43.21316" lon="5.53101">
        <ele>14.9</ele>
        <time>2018-04-02T09:20:03Z</time>
      </trkpt>
      <trkpt lat="43.21309" lon="5.53092">
        <ele>14.8</ele>
        <time>2018-04-02T09:20:11Z</time>
      </trkpt>
      <trkpt lat="43.21301" lon="5.53087">
        <ele>14.4</ele>
        <time>2018-04-02T09:21:18Z</time>
      </trkpt>
      <trkpt lat="43.21295" lon="5.53076">
        <ele>17.1</ele>
        <time>2018-04-02T09:22:44Z</time>
      </trkpt>
      <trkpt lat="43.21287" lon="5.53069">
        <ele>17</ele>
        <time>2018-04-02T09:22:57Z</time>
      </trkpt>
      <trkpt lat="43.21278" lon="5.53068">
        <ele>16.7</ele>
        <time>2018-04-02T09:23:07Z</time>
      </trkpt>
      <trkpt lat="43.21268" lon="5.53071">
        <ele>16</ele>
        <time>2018-04-02T09:23:16Z</time>
      </trkpt>
      <trkpt lat="43.21259" lon="5.53073">
        <ele>15.2</ele>
        <time>2018-04-02T09:23:26Z</time>
      </trkpt>
      <trkpt lat="43.21249" lon="5.53074">
        <ele>13.9</ele>
        <time>2018-04-02T09:23:36Z</time>
      </trkpt>
      <trkpt lat="43.2124" lon="5.53077">
        <ele>14</ele>
        <time>2018-04-02T09:23:46Z</time>
      </trkpt>
      <trkpt lat="43.2123" lon="5.53078">
        <ele>14.3</ele>
        <time>2018-04-02T09:23:55Z</time>
      </trkpt>
      <trkpt lat="43.21222" lon="5.53072">
        <ele>14.6</ele>
        <time>2018-04-02T09:24:17Z</time>
      </trkpt>
      <trkpt lat="43.21212" lon="5.53073">
        <ele>14.4</ele>
        <time>2018-04-02T09:24:27Z</time>
      </trkpt>
      <trkpt lat="43.21213" lon="5.5306">
        <ele>14.9</ele>
        <time>2018-04-02T09:24:43Z</time>
      </trkpt>
      <trkpt lat="43.21219" lon="5.5305">
        <ele>15.4</ele>
        <time>2018-04-02T09:24:52Z</time>
      </trkpt>
      <trkpt lat="43.21223" lon="5.53037">
        <ele>16.3</ele>
        <time>2018-04-02T09:25:01Z</time>
      </trkpt>
      <trkpt lat="43.21222" lon="5.53024">
        <ele>17.1</ele>
        <time>2018-04-02T09:25:11Z</time>
      </trkpt>
      <trkpt lat="43.2122" lon="5.53011">
        <ele>17.6</ele>
        <time>2018-04-02T09:25:21Z</time>
      </trkpt>
      <trkpt lat="43.21219" lon="5.52998">
        <ele>23.7</ele>
        <time>2018-04-02T09:25:31Z</time>
      </trkpt>
      <trkpt lat="43.21219" lon="5.52984">
        <ele>24.2</ele>
        <time>2018-04-02T09:25:43Z</time>
      </trkpt>
      <trkpt lat="43.21217" lon="5.52972">
        <ele>24.8</ele>
        <time>2018-04-02T09:25:55Z</time>
      </trkpt>
      <trkpt lat="43.21214" lon="5.52945">
        <ele>26.6</ele>
        <time>2018-04-02T09:26:16Z</time>
      </trkpt>
      <trkpt lat="43.21215" lon="5.52932">
        <ele>27.6</ele>
        <time>2018-04-02T09:26:25Z</time>
      </trkpt>
      <trkpt lat="43.21214" lon="5.52919">
        <ele>28.1</ele>
        <time>2018-04-02T09:26:36Z</time>
      </trkpt>
      <trkpt lat="43.21208" lon="5.5291">
        <ele>35.4</ele>
        <time>2018-04-02T09:26:44Z</time>
      </trkpt>
      <trkpt lat="43.21208" lon="5.52897">
        <ele>36</ele>
        <time>2018-04-02T09:26:54Z</time>
      </trkpt>
      <trkpt lat="43.21212" lon="5.52886">
        <ele>36.9</ele>
        <time>2018-04-02T09:27:01Z</time>
      </trkpt>
      <trkpt lat="43.21214" lon="5.52872">
        <ele>38</ele>
        <time>2018-04-02T09:27:11Z</time>
      </trkpt>
      <trkpt lat="43.2121" lon="5.5286">
        <ele>38.6</ele>
        <time>2018-04-02T09:27:20Z</time>
      </trkpt>
      <trkpt lat="43.21205" lon="5.52848">
        <ele>39</ele>
        <time>2018-04-02T09:27:29Z</time>
      </trkpt>
      <trkpt lat="43.212" lon="5.52838">
        <ele>39.1</ele>
        <time>2018-04-02T09:27:39Z</time>
      </trkpt>
      <trkpt lat="43.21197" lon="5.52826">
        <ele>43.8</ele>
        <time>2018-04-02T09:27:49Z</time>
      </trkpt>
      <trkpt lat="43.21195" lon="5.52813">
        <ele>44</ele>
        <time>2018-04-02T09:28:00Z</time>
      </trkpt>
      <trkpt lat="43.21194" lon="5.528">
        <ele>44.4</ele>
        <time>2018-04-02T09:28:09Z</time>
      </trkpt>
      <trkpt lat="43.21189" lon="5.52789">
        <ele>44.5</ele>
        <time>2018-04-02T09:28:19Z</time>
      </trkpt>
      <trkpt lat="43.21185" lon="5.52776">
        <ele>44.4</ele>
        <time>2018-04-02T09:28:30Z</time>
      </trkpt>
      <trkpt lat="43.21182" lon="5.52764">
        <ele>44</ele>
        <time>2018-04-02T09:28:42Z</time>
      </trkpt>
      <trkpt lat="43.21182" lon="5.5275">
        <ele>45.4</ele>
        <time>2018-04-02T09:28:52Z</time>
      </trkpt>
      <trkpt lat="43.21182" lon="5.52725">
        <ele>47.1</ele>
        <time>2018-04-02T09:29:10Z</time>
      </trkpt>
      <trkpt lat="43.2118" lon="5.52712">
        <ele>47.8</ele>
        <time>2018-04-02T09:29:19Z</time>
      </trkpt>
      <trkpt lat="43.21175" lon="5.52701">
        <ele>48.1</ele>
        <time>2018-04-02T09:29:28Z</time>
      </trkpt>
      <trkpt lat="43.21174" lon="5.52689">
        <ele>48.4</ele>
        <time>2018-04-02T09:29:36Z</time>
      </trkpt>
      <trkpt lat="43.21173" lon="5.52676">
        <ele>48.3</ele>
        <time>2018-04-02T09:29:44Z</time>
      </trkpt>
      <trkpt lat="43.21168" lon="5.52665">
        <ele>48.4</ele>
        <time>2018-04-02T09:29:52Z</time>
      </trkpt>
      <trkpt lat="43.21162" lon="5.52655">
        <ele>47.9</ele>
        <time>2018-04-02T09:30:01Z</time>
      </trkpt>
      <trkpt lat="43.21159" lon="5.52643">
        <ele>48</ele>
        <time>2018-04-02T09:30:12Z</time>
      </trkpt>
      <trkpt lat="43.21156" lon="5.52631">
        <ele>48.3</ele>
        <time>2018-04-02T09:30:18Z</time>
      </trkpt>
      <trkpt lat="43.21152" lon="5.52605">
        <ele>49.8</ele>
        <time>2018-04-02T09:30:34Z</time>
      </trkpt>
      <trkpt lat="43.21146" lon="5.52594">
        <ele>50.1</ele>
        <time>2018-04-02T09:30:44Z</time>
      </trkpt>
      <trkpt lat="43.21136" lon="5.5257">
        <ele>51.8</ele>
        <time>2018-04-02T09:31:00Z</time>
      </trkpt>
      <trkpt lat="43.21135" lon="5.52557">
        <ele>51.7</ele>
        <time>2018-04-02T09:31:06Z</time>
      </trkpt>
      <trkpt lat="43.2113" lon="5.52546">
        <ele>51.6</ele>
        <time>2018-04-02T09:31:16Z</time>
      </trkpt>
      <trkpt lat="43.21125" lon="5.52534">
        <ele>51.5</ele>
        <time>2018-04-02T09:31:25Z</time>
      </trkpt>
      <trkpt lat="43.21121" lon="5.52522">
        <ele>51.5</ele>
        <time>2018-04-02T09:31:35Z</time>
      </trkpt>
      <trkpt lat="43.21118" lon="5.52509">
        <ele>51.5</ele>
        <time>2018-04-02T09:31:43Z</time>
      </trkpt>
      <trkpt lat="43.21114" lon="5.52498">
        <ele>51.8</ele>
        <time>2018-04-02T09:31:51Z</time>
      </trkpt>
      <trkpt lat="43.21109" lon="5.52487">
        <ele>51.8</ele>
        <time>2018-04-02T09:32:01Z</time>
      </trkpt>
      <trkpt lat="43.21098" lon="5.52464">
        <ele>51.8</ele>
        <time>2018-04-02T09:32:18Z</time>
      </trkpt>
      <trkpt lat="43.21101" lon="5.52452">
        <ele>51.9</ele>
        <time>2018-04-02T09:32:28Z</time>
      </trkpt>
      <trkpt lat="43.21108" lon="5.52442">
        <ele>51.9</ele>
        <time>2018-04-02T09:32:38Z</time>
      </trkpt>
      <trkpt lat="43.21115" lon="5.52433">
        <ele>52</ele>
        <time>2018-04-02T09:32:48Z</time>
      </trkpt>
      <trkpt lat="43.21122" lon="5.52424">
        <ele>52</ele>
        <time>2018-04-02T09:32:56Z</time>
      </trkpt>
      <trkpt lat="43.21131" lon="5.5242">
        <ele>52</ele>
        <time>2018-04-02T09:33:04Z</time>
      </trkpt>
      <trkpt lat="43.2114" lon="5.52415">
        <ele>51.4</ele>
        <time>2018-04-02T09:33:13Z</time>
      </trkpt>
      <trkpt lat="43.21147" lon="5.52407">
        <ele>51.4</ele>
        <time>2018-04-02T09:33:22Z</time>
      </trkpt>
      <trkpt lat="43.21149" lon="5.52394">
        <ele>51.2</ele>
        <time>2018-04-02T09:33:33Z</time>
      </trkpt>
      <trkpt lat="43.21154" lon="5.52383">
        <ele>51</ele>
        <time>2018-04-02T09:33:42Z</time>
      </trkpt>
      <trkpt lat="43.21146" lon="5.52375">
        <ele>50.9</ele>
        <time>2018-04-02T09:34:05Z</time>
      </trkpt>
      <trkpt lat="43.21146" lon="5.52362">
        <ele>50.6</ele>
        <time>2018-04-02T09:34:37Z</time>
      </trkpt>
      <trkpt lat="43.21148" lon="5.52337">
        <ele>50.1</ele>
        <time>2018-04-02T09:34:56Z</time>
      </trkpt>
      <trkpt lat="43.21151" lon="5.52311">
        <ele>44.5</ele>
        <time>2018-04-02T09:35:14Z</time>
      </trkpt>
      <trkpt lat="43.2115" lon="5.52299">
        <ele>43</ele>
        <time>2018-04-02T09:35:23Z</time>
      </trkpt>
      <trkpt lat="43.21149" lon="5.52285">
        <ele>41.3</ele>
        <time>2018-04-02T09:35:31Z</time>
      </trkpt>
      <trkpt lat="43.2115" lon="5.52273">
        <ele>39.6</ele>
        <time>2018-04-02T09:35:40Z</time>
      </trkpt>
      <trkpt lat="43.2115" lon="5.5226">
        <ele>37.8</ele>
        <time>2018-04-02T09:35:49Z</time>
      </trkpt>
      <trkpt lat="43.2115" lon="5.52248">
        <ele>30.1</ele>
        <time>2018-04-02T09:35:57Z</time>
      </trkpt>
      <trkpt lat="43.21152" lon="5.52222">
        <ele>28.1</ele>
        <time>2018-04-02T09:36:13Z</time>
      </trkpt>
      <trkpt lat="43.21155" lon="5.52209">
        <ele>26.6</ele>
        <time>2018-04-02T09:36:23Z</time>
      </trkpt>
      <trkpt lat="43.21157" lon="5.52196">
        <ele>25</ele>
        <time>2018-04-02T09:37:15Z</time>
      </trkpt>
      <trkpt lat="43.21166" lon="5.52201">
        <ele>25.5</ele>
        <time>2018-04-02T09:37:26Z</time>
      </trkpt>
      <trkpt lat="43.21174" lon="5.52206">
        <ele>27.7</ele>
        <time>2018-04-02T09:37:34Z</time>
      </trkpt>
      <trkpt lat="43.21183" lon="5.52213">
        <ele>28.5</ele>
        <time>2018-04-02T09:37:44Z</time>
      </trkpt>
      <trkpt lat="43.21193" lon="5.52214">
        <ele>28.8</ele>
        <time>2018-04-02T09:37:54Z</time>
      </trkpt>
      <trkpt lat="43.21197" lon="5.52203">
        <ele>28.6</ele>
        <time>2018-04-02T09:38:17Z</time>
      </trkpt>
      <trkpt lat="43.21202" lon="5.52179">
        <ele>28.3</ele>
        <time>2018-04-02T09:38:52Z</time>
      </trkpt>
      <trkpt lat="43.21195" lon="5.52169">
        <ele>26.9</ele>
        <time>2018-04-02T09:39:04Z</time>
      </trkpt>
      <trkpt lat="43.21194" lon="5.52157">
        <ele>32.9</ele>
        <time>2018-04-02T09:39:34Z</time>
      </trkpt>
      <trkpt lat="43.2114" lon="5.52081">
        <ele>27.9</ele>
        <time>2018-04-02T09:40:47Z</time>
      </trkpt>
      <trkpt lat="43.21135" lon="5.52074">
        <ele>27.6</ele>
        <time>2018-04-02T09:41:06Z</time>
      </trkpt>
      <trkpt lat="43.21162" lon="5.52083">
        <ele>29.2</ele>
        <time>2018-04-02T09:42:16Z</time>
      </trkpt>
      <trkpt lat="43.2115" lon="5.52082">
        <ele>28.8</ele>
        <time>2018-04-02T09:42:37Z</time>
      </trkpt>
      <trkpt lat="43.21176" lon="5.52065">
        <ele>47.4</ele>
        <time>2018-04-02T09:43:35Z</time>
      </trkpt>
      <trkpt lat="43.21166" lon="5.52065">
        <ele>30.7</ele>
        <time>2018-04-02T09:43:43Z</time>
      </trkpt>
      <trkpt lat="43.21157" lon="5.52062">
        <ele>30.7</ele>
        <time>2018-04-02T09:43:49Z</time>
      </trkpt>
      <trkpt lat="43.21148" lon="5.52058">
        <ele>30.6</ele>
        <time>2018-04-02T09:43:55Z</time>
      </trkpt>
      <trkpt lat="43.2113" lon="5.52049">
        <ele>29.7</ele>
        <time>2018-04-02T09:44:09Z</time>
      </trkpt>
      <trkpt lat="43.21122" lon="5.52042">
        <ele>29.5</ele>
        <time>2018-04-02T09:44:17Z</time>
      </trkpt>
      <trkpt lat="43.21113" lon="5.52035">
        <ele>29.1</ele>
        <time>2018-04-02T09:44:26Z</time>
      </trkpt>
      <trkpt lat="43.21105" lon="5.52029">
        <ele>28.7</ele>
        <time>2018-04-02T09:44:34Z</time>
      </trkpt>
      <trkpt lat="43.21088" lon="5.52021">
        <ele>27.8</ele>
        <time>2018-04-02T09:44:48Z</time>
      </trkpt>
      <trkpt lat="43.21079" lon="5.52019">
        <ele>19.1</ele>
        <time>2018-04-02T09:45:00Z</time>
      </trkpt>
      <trkpt lat="43.21072" lon="5.5201">
        <ele>20.4</ele>
        <time>2018-04-02T09:45:09Z</time>
      </trkpt>
      <trkpt lat="43.21066" lon="5.51999">
        <ele>26.1</ele>
        <time>2018-04-02T09:45:18Z</time>
      </trkpt>
      <trkpt lat="43.21059" lon="5.5199">
        <ele>25.7</ele>
        <time>2018-04-02T09:45:27Z</time>
      </trkpt>
      <trkpt lat="43.21051" lon="5.51982">
        <ele>25.2</ele>
        <time>2018-04-02T09:45:36Z</time>
      </trkpt>
      <trkpt lat="43.21048" lon="5.5197">
        <ele>25.9</ele>
        <time>2018-04-02T09:45:46Z</time>
      </trkpt>
      <trkpt lat="43.21039" lon="5.51964">
        <ele>25.2</ele>
        <time>2018-04-02T09:45:56Z</time>
      </trkpt>
      <trkpt lat="43.21032" lon="5.51955">
        <ele>25.1</ele>
        <time>2018-04-02T09:46:05Z</time>
      </trkpt>
      <trkpt lat="43.21027" lon="5.51944">
        <ele>25.3</ele>
        <time>2018-04-02T09:46:15Z</time>
      </trkpt>
      <trkpt lat="43.21022" lon="5.51933">
        <ele>24.9</ele>
        <time>2018-04-02T09:46:24Z</time>
      </trkpt>
      <trkpt lat="43.21016" lon="5.51924">
        <ele>23.8</ele>
        <time>2018-04-02T09:46:32Z</time>
      </trkpt>
      <trkpt lat="43.21005" lon="5.51904">
        <ele>27.8</ele>
        <time>2018-04-02T09:46:47Z</time>
      </trkpt>
      <trkpt lat="43.20997" lon="5.51895">
        <ele>18.4</ele>
        <time>2018-04-02T09:46:56Z</time>
      </trkpt>
      <trkpt lat="43.2099" lon="5.51888">
        <ele>18.1</ele>
        <time>2018-04-02T09:47:04Z</time>
      </trkpt>
      <trkpt lat="43.20982" lon="5.51881">
        <ele>17.8</ele>
        <time>2018-04-02T09:47:11Z</time>
      </trkpt>
      <trkpt lat="43.20975" lon="5.51872">
        <ele>17.7</ele>
        <time>2018-04-02T09:47:19Z</time>
      </trkpt>
      <trkpt lat="43.20947" lon="5.51837">
        <ele>14.8</ele>
        <time>2018-04-02T09:47:52Z</time>
      </trkpt>
      <trkpt lat="43.2094" lon="5.51828">
        <ele>18.5</ele>
        <time>2018-04-02T09:48:00Z</time>
      </trkpt>
      <trkpt lat="43.20927" lon="5.51809">
        <ele>18.6</ele>
        <time>2018-04-02T09:48:15Z</time>
      </trkpt>
      <trkpt lat="43.20919" lon="5.51801">
        <ele>19.4</ele>
        <time>2018-04-02T09:48:23Z</time>
      </trkpt>
      <trkpt lat="43.20913" lon="5.51791">
        <ele>10.7</ele>
        <time>2018-04-02T09:48:32Z</time>
      </trkpt>
      <trkpt lat="43.20901" lon="5.51771">
        <ele>12.3</ele>
        <time>2018-04-02T09:48:48Z</time>
      </trkpt>
      <trkpt lat="43.20888" lon="5.51752">
        <ele>12.1</ele>
        <time>2018-04-02T09:49:03Z</time>
      </trkpt>
      <trkpt lat="43.20868" lon="5.51726">
        <ele>16.7</ele>
        <time>2018-04-02T09:49:27Z</time>
      </trkpt>
      <trkpt lat="43.20863" lon="5.51715">
        <ele>16.9</ele>
        <time>2018-04-02T09:49:35Z</time>
      </trkpt>
      <trkpt lat="43.20859" lon="5.51704">
        <ele>17.2</ele>
        <time>2018-04-02T09:49:44Z</time>
      </trkpt>
      <trkpt lat="43.20853" lon="5.51693">
        <ele>17</ele>
        <time>2018-04-02T09:49:52Z</time>
      </trkpt>
      <trkpt lat="43.20847" lon="5.51685">
        <ele>16.3</ele>
        <time>2018-04-02T09:50:00Z</time>
      </trkpt>
      <trkpt lat="43.20839" lon="5.51676">
        <ele>15</ele>
        <time>2018-04-02T09:50:08Z</time>
      </trkpt>
      <trkpt lat="43.20833" lon="5.51666">
        <ele>13</ele>
        <time>2018-04-02T09:50:17Z</time>
      </trkpt>
      <trkpt lat="43.2083" lon="5.51654">
        <ele>13.3</ele>
        <time>2018-04-02T09:50:26Z</time>
      </trkpt>
      <trkpt lat="43.20826" lon="5.51642">
        <ele>13.9</ele>
        <time>2018-04-02T09:50:35Z</time>
      </trkpt>
      <trkpt lat="43.20819" lon="5.51632">
        <ele>14.4</ele>
        <time>2018-04-02T09:50:44Z</time>
      </trkpt>
      <trkpt lat="43.20799" lon="5.51603">
        <ele>15.2</ele>
        <time>2018-04-02T09:51:09Z</time>
      </trkpt>
      <trkpt lat="43.2079" lon="5.51599">
        <ele>14</ele>
        <time>2018-04-02T09:51:20Z</time>
      </trkpt>
      <trkpt lat="43.20781" lon="5.51596">
        <ele>12.7</ele>
        <time>2018-04-02T09:51:29Z</time>
      </trkpt>
      <trkpt lat="43.20772" lon="5.5159">
        <ele>11.3</ele>
        <time>2018-04-02T09:51:38Z</time>
      </trkpt>
      <trkpt lat="43.20763" lon="5.51588">
        <ele>9.8</ele>
        <time>2018-04-02T09:51:47Z</time>
      </trkpt>
      <trkpt lat="43.20754" lon="5.51587">
        <ele>8.2</ele>
        <time>2018-04-02T09:52:32Z</time>
      </trkpt>
      <trkpt lat="43.20752" lon="5.51574">
        <ele>13.9</ele>
        <time>2018-04-02T09:53:13Z</time>
      </trkpt>
      <trkpt lat="43.20745" lon="5.51566">
        <ele>9.9</ele>
        <time>2018-04-02T09:53:27Z</time>
      </trkpt>
      <trkpt lat="43.20738" lon="5.51556">
        <ele>11.1</ele>
        <time>2018-04-02T09:53:36Z</time>
      </trkpt>
      <trkpt lat="43.20733" lon="5.51546">
        <ele>12.2</ele>
        <time>2018-04-02T09:53:44Z</time>
      </trkpt>
      <trkpt lat="43.20733" lon="5.51532">
        <ele>14</ele>
        <time>2018-04-02T09:53:53Z</time>
      </trkpt>
      <trkpt lat="43.20734" lon="5.51519">
        <ele>16</ele>
        <time>2018-04-02T09:54:03Z</time>
      </trkpt>
      <trkpt lat="43.20734" lon="5.51506">
        <ele>17.9</ele>
        <time>2018-04-02T09:54:22Z</time>
      </trkpt>
      <trkpt lat="43.20734" lon="5.51493">
        <ele>28.8</ele>
        <time>2018-04-02T09:54:33Z</time>
      </trkpt>
      <trkpt lat="43.20736" lon="5.51481">
        <ele>30.7</ele>
        <time>2018-04-02T09:54:42Z</time>
      </trkpt>
      <trkpt lat="43.20733" lon="5.51469">
        <ele>33.5</ele>
        <time>2018-04-02T09:54:55Z</time>
      </trkpt>
      <trkpt lat="43.20724" lon="5.51462">
        <ele>34.7</ele>
        <time>2018-04-02T09:55:03Z</time>
      </trkpt>
      <trkpt lat="43.20716" lon="5.51457">
        <ele>35.1</ele>
        <time>2018-04-02T09:55:11Z</time>
      </trkpt>
      <trkpt lat="43.20706" lon="5.51455">
        <ele>34.7</ele>
        <time>2018-04-02T09:55:21Z</time>
      </trkpt>
      <trkpt lat="43.20678" lon="5.51447">
        <ele>34.7</ele>
        <time>2018-04-02T09:56:01Z</time>
      </trkpt>
      <trkpt lat="43.2066" lon="5.51439">
        <ele>29.6</ele>
        <time>2018-04-02T09:56:30Z</time>
      </trkpt>
      <trkpt lat="43.20651" lon="5.51436">
        <ele>29.2</ele>
        <time>2018-04-02T09:56:39Z</time>
      </trkpt>
      <trkpt lat="43.20641" lon="5.51435">
        <ele>27.6</ele>
        <time>2018-04-02T09:56:47Z</time>
      </trkpt>
      <trkpt lat="43.20632" lon="5.51431">
        <ele>26.7</ele>
        <time>2018-04-02T09:56:57Z</time>
      </trkpt>
      <trkpt lat="43.20624" lon="5.51426">
        <ele>26</ele>
        <time>2018-04-02T09:57:07Z</time>
      </trkpt>
      <trkpt lat="43.20614" lon="5.51418">
        <ele>25.4</ele>
        <time>2018-04-02T09:57:23Z</time>
      </trkpt>
      <trkpt lat="43.20606" lon="5.51409">
        <ele>34.5</ele>
        <time>2018-04-02T09:57:32Z</time>
      </trkpt>
      <trkpt lat="43.206" lon="5.51398">
        <ele>34.8</ele>
        <time>2018-04-02T09:57:41Z</time>
      </trkpt>
      <trkpt lat="43.20593" lon="5.51391">
        <ele>35.2</ele>
        <time>2018-04-02T09:58:12Z</time>
      </trkpt>
      <trkpt lat="43.20587" lon="5.51382">
        <ele>36.3</ele>
        <time>2018-04-02T09:58:42Z</time>
      </trkpt>
      <trkpt lat="43.20585" lon="5.51368">
        <ele>37.8</ele>
        <time>2018-04-02T09:59:04Z</time>
      </trkpt>
      <trkpt lat="43.20584" lon="5.51355">
        <ele>38.6</ele>
        <time>2018-04-02T09:59:15Z</time>
      </trkpt>
      <trkpt lat="43.20587" lon="5.51343">
        <ele>38.7</ele>
        <time>2018-04-02T09:59:25Z</time>
      </trkpt>
      <trkpt lat="43.20591" lon="5.51332">
        <ele>41.3</ele>
        <time>2018-04-02T09:59:36Z</time>
      </trkpt>
      <trkpt lat="43.20596" lon="5.51321">
        <ele>44.2</ele>
        <time>2018-04-02T09:59:48Z</time>
      </trkpt>
      <trkpt lat="43.20598" lon="5.51309">
        <ele>46.2</ele>
        <time>2018-04-02T09:59:58Z</time>
      </trkpt>
      <trkpt lat="43.20601" lon="5.51297">
        <ele>47.6</ele>
        <time>2018-04-02T10:00:08Z</time>
      </trkpt>
      <trkpt lat="43.20602" lon="5.51284">
        <ele>48.3</ele>
        <time>2018-04-02T10:00:20Z</time>
      </trkpt>
      <trkpt lat="43.20599" lon="5.51272">
        <ele>48.3</ele>
        <time>2018-04-02T10:00:33Z</time>
      </trkpt>
      <trkpt lat="43.20598" lon="5.51259">
        <ele>48</ele>
        <time>2018-04-02T10:00:45Z</time>
      </trkpt>
      <trkpt lat="43.20594" lon="5.51248">
        <ele>47.9</ele>
        <time>2018-04-02T10:00:54Z</time>
      </trkpt>
      <trkpt lat="43.20587" lon="5.51225">
        <ele>49</ele>
        <time>2018-04-02T10:01:26Z</time>
      </trkpt>
      <trkpt lat="43.20579" lon="5.51215">
        <ele>41.8</ele>
        <time>2018-04-02T10:01:36Z</time>
      </trkpt>
      <trkpt lat="43.20573" lon="5.51204">
        <ele>41.8</ele>
        <time>2018-04-02T10:01:45Z</time>
      </trkpt>
      <trkpt lat="43.20565" lon="5.51197">
        <ele>41.5</ele>
        <time>2018-04-02T10:01:56Z</time>
      </trkpt>
      <trkpt lat="43.20557" lon="5.51189">
        <ele>41.2</ele>
        <time>2018-04-02T10:02:08Z</time>
      </trkpt>
      <trkpt lat="43.2055" lon="5.51181">
        <ele>40.7</ele>
        <time>2018-04-02T10:02:17Z</time>
      </trkpt>
      <trkpt lat="43.20545" lon="5.5117">
        <ele>40.2</ele>
        <time>2018-04-02T10:02:27Z</time>
      </trkpt>
      <trkpt lat="43.20537" lon="5.51164">
        <ele>36.5</ele>
        <time>2018-04-02T10:02:46Z</time>
      </trkpt>
      <trkpt lat="43.20528" lon="5.51164">
        <ele>35.6</ele>
        <time>2018-04-02T10:03:05Z</time>
      </trkpt>
      <trkpt lat="43.20512" lon="5.51157">
        <ele>34.4</ele>
        <time>2018-04-02T10:10:36Z</time>
      </trkpt>
      <trkpt lat="43.205" lon="5.51156">
        <ele>30.5</ele>
        <time>2018-04-02T10:11:04Z</time>
      </trkpt>
      <trkpt lat="43.20472" lon="5.51155">
        <ele>26.7</ele>
        <time>2018-04-02T10:12:05Z</time>
      </trkpt>
      <trkpt lat="43.20463" lon="5.51158">
        <ele>25.9</ele>
        <time>2018-04-02T10:12:28Z</time>
      </trkpt>
      <trkpt lat="43.20445" lon="5.51164">
        <ele>24.7</ele>
        <time>2018-04-02T10:13:50Z</time>
      </trkpt>
      <trkpt lat="43.20421" lon="5.51167">
        <ele>24.5</ele>
        <time>2018-04-02T10:14:06Z</time>
      </trkpt>
      <trkpt lat="43.20405" lon="5.51172">
        <ele>22.7</ele>
        <time>2018-04-02T10:14:35Z</time>
      </trkpt>
      <trkpt lat="43.20396" lon="5.51172">
        <ele>22.1</ele>
        <time>2018-04-02T10:14:50Z</time>
      </trkpt>
      <trkpt lat="43.2038" lon="5.51171">
        <ele>21.3</ele>
        <time>2018-04-02T10:15:16Z</time>
      </trkpt>
      <trkpt lat="43.20368" lon="5.51173">
        <ele>20.7</ele>
        <time>2018-04-02T10:15:30Z</time>
      </trkpt>
      <trkpt lat="43.20357" lon="5.51175">
        <ele>20.2</ele>
        <time>2018-04-02T10:15:41Z</time>
      </trkpt>
      <trkpt lat="43.20347" lon="5.51174">
        <ele>19.8</ele>
        <time>2018-04-02T10:15:50Z</time>
      </trkpt>
      <trkpt lat="43.20338" lon="5.51173">
        <ele>19.4</ele>
        <time>2018-04-02T10:16:09Z</time>
      </trkpt>
      <trkpt lat="43.20329" lon="5.51175">
        <ele>19.5</ele>
        <time>2018-04-02T10:16:47Z</time>
      </trkpt>
      <trkpt lat="43.2032" lon="5.51174">
        <ele>19.8</ele>
        <time>2018-04-02T10:17:31Z</time>
      </trkpt>
      <trkpt lat="43.20312" lon="5.51168">
        <ele>20.2</ele>
        <time>2018-04-02T10:18:53Z</time>
      </trkpt>
      <trkpt lat="43.20303" lon="5.51161">
        <ele>20</ele>
        <time>2018-04-02T10:19:18Z</time>
      </trkpt>
      <trkpt lat="43.20295" lon="5.51165">
        <ele>20.6</ele>
        <time>2018-04-02T10:19:34Z</time>
      </trkpt>
      <trkpt lat="43.20286" lon="5.51162">
        <ele>21.2</ele>
        <time>2018-04-02T10:19:48Z</time>
      </trkpt>
      <trkpt lat="43.20276" lon="5.51167">
        <ele>22.7</ele>
        <time>2018-04-02T10:20:03Z</time>
      </trkpt>
      <trkpt lat="43.20268" lon="5.51172">
        <ele>23.5</ele>
        <time>2018-04-02T10:20:15Z</time>
      </trkpt>
      <trkpt lat="43.20261" lon="5.51179">
        <ele>23.8</ele>
        <time>2018-04-02T10:20:37Z</time>
      </trkpt>
      <trkpt lat="43.20251" lon="5.5118">
        <ele>24.3</ele>
        <time>2018-04-02T10:20:59Z</time>
      </trkpt>
      <trkpt lat="43.20242" lon="5.51188">
        <ele>26.7</ele>
        <time>2018-04-02T10:22:35Z</time>
      </trkpt>
      <trkpt lat="43.2024" lon="5.51174">
        <ele>27</ele>
        <time>2018-04-02T10:22:55Z</time>
      </trkpt>
      <trkpt lat="43.20232" lon="5.51164">
        <ele>28.9</ele>
        <time>2018-04-02T10:23:15Z</time>
      </trkpt>
      <trkpt lat="43.20223" lon="5.51161">
        <ele>29.6</ele>
        <time>2018-04-02T10:23:31Z</time>
      </trkpt>
      <trkpt lat="43.20214" lon="5.5116">
        <ele>30.4</ele>
        <time>2018-04-02T10:23:44Z</time>
      </trkpt>
      <trkpt lat="43.20205" lon="5.51159">
        <ele>31.1</ele>
        <time>2018-04-02T10:23:56Z</time>
      </trkpt>
      <trkpt lat="43.20195" lon="5.51161">
        <ele>32.1</ele>
        <time>2018-04-02T10:24:07Z</time>
      </trkpt>
      <trkpt lat="43.20186" lon="5.51165">
        <ele>33.1</ele>
        <time>2018-04-02T10:24:14Z</time>
      </trkpt>
      <trkpt lat="43.20177" lon="5.51169">
        <ele>32.8</ele>
        <time>2018-04-02T10:24:22Z</time>
      </trkpt>
      <trkpt lat="43.20168" lon="5.51175">
        <ele>33.3</ele>
        <time>2018-04-02T10:24:30Z</time>
      </trkpt>
      <trkpt lat="43.20159" lon="5.51181">
        <ele>30.8</ele>
        <time>2018-04-02T10:24:38Z</time>
      </trkpt>
      <trkpt lat="43.20151" lon="5.51188">
        <ele>28.8</ele>
        <time>2018-04-02T10:24:49Z</time>
      </trkpt>
      <trkpt lat="43.20143" lon="5.51198">
        <ele>27</ele>
        <time>2018-04-02T10:25:09Z</time>
      </trkpt>
      <trkpt lat="43.20134" lon="5.51202">
        <ele>26</ele>
        <time>2018-04-02T10:25:29Z</time>
      </trkpt>
      <trkpt lat="43.20125" lon="5.51206">
        <ele>25.2</ele>
        <time>2018-04-02T10:25:47Z</time>
      </trkpt>
      <trkpt lat="43.2011" lon="5.51211">
        <ele>23.9</ele>
        <time>2018-04-02T10:26:11Z</time>
      </trkpt>
      <trkpt lat="43.201" lon="5.51214">
        <ele>23.1</ele>
        <time>2018-04-02T10:26:28Z</time>
      </trkpt>
      <trkpt lat="43.20091" lon="5.51213">
        <ele>22.8</ele>
        <time>2018-04-02T10:26:46Z</time>
      </trkpt>
      <trkpt lat="43.20098" lon="5.51222">
        <ele>22</ele>
        <time>2018-04-02T10:27:16Z</time>
      </trkpt>
      <trkpt lat="43.20106" lon="5.51227">
        <ele>22.1</ele>
        <time>2018-04-02T10:27:30Z</time>
      </trkpt>
      <trkpt lat="43.20096" lon="5.51226">
        <ele>21.4</ele>
        <time>2018-04-02T10:28:09Z</time>
      </trkpt>
      <trkpt lat="43.20088" lon="5.51219">
        <ele>21.9</ele>
        <time>2018-04-02T10:28:21Z</time>
      </trkpt>
      <trkpt lat="43.20081" lon="5.51211">
        <ele>16.8</ele>
        <time>2018-04-02T10:28:34Z</time>
      </trkpt>
      <trkpt lat="43.20073" lon="5.51206">
        <ele>17</ele>
        <time>2018-04-02T10:28:45Z</time>
      </trkpt>
      <trkpt lat="43.20055" lon="5.51197">
        <ele>16.8</ele>
        <time>2018-04-02T10:29:01Z</time>
      </trkpt>
      <trkpt lat="43.20048" lon="5.51191">
        <ele>16.6</ele>
        <time>2018-04-02T10:29:09Z</time>
      </trkpt>
      <trkpt lat="43.20039" lon="5.51185">
        <ele>16.1</ele>
        <time>2018-04-02T10:29:17Z</time>
      </trkpt>
      <trkpt lat="43.20023" lon="5.5117">
        <ele>15</ele>
        <time>2018-04-02T10:29:34Z</time>
      </trkpt>
      <trkpt lat="43.20014" lon="5.51165">
        <ele>17.7</ele>
        <time>2018-04-02T10:29:44Z</time>
      </trkpt>
      <trkpt lat="43.20007" lon="5.51158">
        <ele>17</ele>
        <time>2018-04-02T10:29:52Z</time>
      </trkpt>
      <trkpt lat="43.19999" lon="5.5115">
        <ele>14.1</ele>
        <time>2018-04-02T10:30:00Z</time>
      </trkpt>
      <trkpt lat="43.19992" lon="5.51142">
        <ele>14.5</ele>
        <time>2018-04-02T10:30:08Z</time>
      </trkpt>
      <trkpt lat="43.19988" lon="5.51128">
        <ele>15.4</ele>
        <time>2018-04-02T10:30:32Z</time>
      </trkpt>
      <trkpt lat="43.19965" lon="5.5109">
        <ele>16.2</ele>
        <time>2018-04-02T10:35:58Z</time>
      </trkpt>
      <trkpt lat="43.19965" lon="5.5109">
        <ele>16.2</ele>
        <time>2018-04-02T10:35:59Z</time>
      </trkpt>
      <trkpt lat="43.19965" lon="5.51089">
        <ele>16.2</ele>
        <time>2018-04-02T10:36:18Z</time>
      </trkpt>
      <trkpt lat="43.1997" lon="5.51089">
        <ele>16.7</ele>
        <time>2018-04-02T11:11:46Z</time>
      </trkpt>
      <trkpt lat="43.19962" lon="5.51084">
        <ele>16</ele>
        <time>2018-04-02T11:15:37Z</time>
      </trkpt>
      <trkpt lat="43.19957" lon="5.51071">
        <ele>18.2</ele>
        <time>2018-04-02T11:15:57Z</time>
      </trkpt>
      <trkpt lat="43.19957" lon="5.51058">
        <ele>18.4</ele>
        <time>2018-04-02T11:16:07Z</time>
      </trkpt>
      <trkpt lat="43.1996" lon="5.51046">
        <ele>18.8</ele>
        <time>2018-04-02T11:16:20Z</time>
      </trkpt>
      <trkpt lat="43.19964" lon="5.51034">
        <ele>19.2</ele>
        <time>2018-04-02T11:16:34Z</time>
      </trkpt>
      <trkpt lat="43.19965" lon="5.51021">
        <ele>19.5</ele>
        <time>2018-04-02T11:16:46Z</time>
      </trkpt>
      <trkpt lat="43.1997" lon="5.5101">
        <ele>20</ele>
        <time>2018-04-02T11:16:58Z</time>
      </trkpt>
      <trkpt lat="43.19974" lon="5.51">
        <ele>18.5</ele>
        <time>2018-04-02T11:17:12Z</time>
      </trkpt>
      <trkpt lat="43.19983" lon="5.50996">
        <ele>19.7</ele>
        <time>2018-04-02T11:17:39Z</time>
      </trkpt>
      <trkpt lat="43.19992" lon="5.50994">
        <ele>21.1</ele>
        <time>2018-04-02T11:17:53Z</time>
      </trkpt>
      <trkpt lat="43.2" lon="5.50986">
        <ele>21.9</ele>
        <time>2018-04-02T11:18:40Z</time>
      </trkpt>
      <trkpt lat="43.20006" lon="5.50997">
        <ele>22.9</ele>
        <time>2018-04-02T11:19:51Z</time>
      </trkpt>
      <trkpt lat="43.20014" lon="5.51004">
        <ele>25.1</ele>
        <time>2018-04-02T11:20:02Z</time>
      </trkpt>
      <trkpt lat="43.20022" lon="5.5101">
        <ele>25.5</ele>
        <time>2018-04-02T11:20:12Z</time>
      </trkpt>
      <trkpt lat="43.20029" lon="5.51018">
        <ele>25.9</ele>
        <time>2018-04-02T11:20:22Z</time>
      </trkpt>
      <trkpt lat="43.20038" lon="5.51015">
        <ele>26.1</ele>
        <time>2018-04-02T11:20:34Z</time>
      </trkpt>
      <trkpt lat="43.20047" lon="5.51011">
        <ele>26.3</ele>
        <time>2018-04-02T11:20:45Z</time>
      </trkpt>
      <trkpt lat="43.20056" lon="5.5101">
        <ele>26.5</ele>
        <time>2018-04-02T11:20:58Z</time>
      </trkpt>
      <trkpt lat="43.20063" lon="5.51002">
        <ele>26.4</ele>
        <time>2018-04-02T11:21:12Z</time>
      </trkpt>
      <trkpt lat="43.2007" lon="5.50994">
        <ele>23.1</ele>
        <time>2018-04-02T11:22:54Z</time>
      </trkpt>
      <trkpt lat="43.20075" lon="5.51006">
        <ele>26.4</ele>
        <time>2018-04-02T11:23:10Z</time>
      </trkpt>
      <trkpt lat="43.2008" lon="5.51017">
        <ele>26.7</ele>
        <time>2018-04-02T11:23:23Z</time>
      </trkpt>
      <trkpt lat="43.20086" lon="5.51027">
        <ele>28.7</ele>
        <time>2018-04-02T11:23:36Z</time>
      </trkpt>
      <trkpt lat="43.20092" lon="5.51037">
        <ele>29.5</ele>
        <time>2018-04-02T11:23:47Z</time>
      </trkpt>
      <trkpt lat="43.20099" lon="5.51046">
        <ele>30.1</ele>
        <time>2018-04-02T11:23:59Z</time>
      </trkpt>
      <trkpt lat="43.20106" lon="5.51054">
        <ele>30.7</ele>
        <time>2018-04-02T11:24:09Z</time>
      </trkpt>
      <trkpt lat="43.20115" lon="5.5106">
        <ele>31</ele>
        <time>2018-04-02T11:24:18Z</time>
      </trkpt>
      <trkpt lat="43.20123" lon="5.51066">
        <ele>31.4</ele>
        <time>2018-04-02T11:24:29Z</time>
      </trkpt>
      <trkpt lat="43.2013" lon="5.51076">
        <ele>32.1</ele>
        <time>2018-04-02T11:24:44Z</time>
      </trkpt>
      <trkpt lat="43.20134" lon="5.51087">
        <ele>34.8</ele>
        <time>2018-04-02T11:24:53Z</time>
      </trkpt>
      <trkpt lat="43.20142" lon="5.51096">
        <ele>35.1</ele>
        <time>2018-04-02T11:25:04Z</time>
      </trkpt>
      <trkpt lat="43.20149" lon="5.51104">
        <ele>35.2</ele>
        <time>2018-04-02T11:25:17Z</time>
      </trkpt>
      <trkpt lat="43.20157" lon="5.51109">
        <ele>35.2</ele>
        <time>2018-04-02T11:25:29Z</time>
      </trkpt>
      <trkpt lat="43.20166" lon="5.5111">
        <ele>35.4</ele>
        <time>2018-04-02T11:25:43Z</time>
      </trkpt>
      <trkpt lat="43.20175" lon="5.51114">
        <ele>33</ele>
        <time>2018-04-02T11:25:52Z</time>
      </trkpt>
      <trkpt lat="43.20183" lon="5.51119">
        <ele>32.4</ele>
        <time>2018-04-02T11:26:02Z</time>
      </trkpt>
      <trkpt lat="43.20191" lon="5.51125">
        <ele>31.8</ele>
        <time>2018-04-02T11:26:13Z</time>
      </trkpt>
      <trkpt lat="43.20199" lon="5.51133">
        <ele>31.3</ele>
        <time>2018-04-02T11:26:24Z</time>
      </trkpt>
      <trkpt lat="43.20206" lon="5.51142">
        <ele>30.9</ele>
        <time>2018-04-02T11:26:35Z</time>
      </trkpt>
      <trkpt lat="43.20211" lon="5.51152">
        <ele>30.6</ele>
        <time>2018-04-02T11:26:46Z</time>
      </trkpt>
      <trkpt lat="43.20219" lon="5.51159">
        <ele>30</ele>
        <time>2018-04-02T11:27:00Z</time>
      </trkpt>
      <trkpt lat="43.20226" lon="5.51166">
        <ele>29.4</ele>
        <time>2018-04-02T11:27:12Z</time>
      </trkpt>
      <trkpt lat="43.20235" lon="5.51177">
        <ele>27.1</ele>
        <time>2018-04-02T11:27:33Z</time>
      </trkpt>
      <trkpt lat="43.20243" lon="5.51181">
        <ele>26.9</ele>
        <time>2018-04-02T11:27:46Z</time>
      </trkpt>
      <trkpt lat="43.20252" lon="5.51177">
        <ele>24.7</ele>
        <time>2018-04-02T11:28:04Z</time>
      </trkpt>
      <trkpt lat="43.20265" lon="5.51167">
        <ele>24</ele>
        <time>2018-04-02T11:28:32Z</time>
      </trkpt>
      <trkpt lat="43.20274" lon="5.51168">
        <ele>22.9</ele>
        <time>2018-04-02T11:28:48Z</time>
      </trkpt>
      <trkpt lat="43.20283" lon="5.51165">
        <ele>21.5</ele>
        <time>2018-04-02T11:29:03Z</time>
      </trkpt>
      <trkpt lat="43.20291" lon="5.51161">
        <ele>20.8</ele>
        <time>2018-04-02T11:29:23Z</time>
      </trkpt>
      <trkpt lat="43.20299" lon="5.51167">
        <ele>21</ele>
        <time>2018-04-02T11:29:36Z</time>
      </trkpt>
      <trkpt lat="43.20308" lon="5.5117">
        <ele>20.4</ele>
        <time>2018-04-02T11:29:54Z</time>
      </trkpt>
      <trkpt lat="43.20317" lon="5.51175">
        <ele>20</ele>
        <time>2018-04-02T11:30:07Z</time>
      </trkpt>
      <trkpt lat="43.20326" lon="5.51178">
        <ele>19.7</ele>
        <time>2018-04-02T11:30:19Z</time>
      </trkpt>
      <trkpt lat="43.20335" lon="5.5118">
        <ele>19.6</ele>
        <time>2018-04-02T11:30:33Z</time>
      </trkpt>
      <trkpt lat="43.20345" lon="5.51179">
        <ele>19.8</ele>
        <time>2018-04-02T11:30:44Z</time>
      </trkpt>
      <trkpt lat="43.20354" lon="5.51181">
        <ele>20.1</ele>
        <time>2018-04-02T11:30:58Z</time>
      </trkpt>
      <trkpt lat="43.20363" lon="5.51181">
        <ele>20.5</ele>
        <time>2018-04-02T11:31:14Z</time>
      </trkpt>
      <trkpt lat="43.20381" lon="5.51179">
        <ele>21.3</ele>
        <time>2018-04-02T11:31:38Z</time>
      </trkpt>
      <trkpt lat="43.2039" lon="5.51176">
        <ele>21.7</ele>
        <time>2018-04-02T11:31:51Z</time>
      </trkpt>
      <trkpt lat="43.204" lon="5.51173">
        <ele>22.4</ele>
        <time>2018-04-02T11:32:04Z</time>
      </trkpt>
      <trkpt lat="43.20412" lon="5.51169">
        <ele>23.4</ele>
        <time>2018-04-02T11:32:24Z</time>
      </trkpt>
      <trkpt lat="43.20421" lon="5.5117">
        <ele>24.7</ele>
        <time>2018-04-02T11:32:38Z</time>
      </trkpt>
      <trkpt lat="43.20429" lon="5.51166">
        <ele>24.1</ele>
        <time>2018-04-02T11:33:07Z</time>
      </trkpt>
      <trkpt lat="43.20444" lon="5.51165">
        <ele>24.7</ele>
        <time>2018-04-02T11:33:47Z</time>
      </trkpt>
      <trkpt lat="43.20453" lon="5.51162">
        <ele>25.2</ele>
        <time>2018-04-02T11:34:17Z</time>
      </trkpt>
      <trkpt lat="43.20464" lon="5.51162">
        <ele>26.2</ele>
        <time>2018-04-02T11:34:25Z</time>
      </trkpt>
      <trkpt lat="43.20473" lon="5.5116">
        <ele>27.1</ele>
        <time>2018-04-02T11:34:49Z</time>
      </trkpt>
      <trkpt lat="43.20497" lon="5.51161">
        <ele>31.6</ele>
        <time>2018-04-02T11:35:24Z</time>
      </trkpt>
      <trkpt lat="43.20506" lon="5.51163">
        <ele>34.2</ele>
        <time>2018-04-02T11:35:36Z</time>
      </trkpt>
      <trkpt lat="43.20516" lon="5.51163">
        <ele>34.7</ele>
        <time>2018-04-02T11:35:47Z</time>
      </trkpt>
      <trkpt lat="43.20525" lon="5.51162">
        <ele>35.3</ele>
        <time>2018-04-02T11:35:58Z</time>
      </trkpt>
      <trkpt lat="43.20531" lon="5.51152">
        <ele>35.5</ele>
        <time>2018-04-02T11:36:17Z</time>
      </trkpt>
      <trkpt lat="43.2054" lon="5.51149">
        <ele>36.2</ele>
        <time>2018-04-02T11:36:28Z</time>
      </trkpt>
      <trkpt lat="43.20547" lon="5.51158">
        <ele>37.6</ele>
        <time>2018-04-02T11:36:47Z</time>
      </trkpt>
      <trkpt lat="43.20555" lon="5.51162">
        <ele>39.1</ele>
        <time>2018-04-02T11:37:10Z</time>
      </trkpt>
      <trkpt lat="43.20565" lon="5.51161">
        <ele>41.2</ele>
        <time>2018-04-02T11:37:23Z</time>
      </trkpt>
      <trkpt lat="43.20581" lon="5.5116">
        <ele>45.4</ele>
        <time>2018-04-02T11:37:53Z</time>
      </trkpt>
      <trkpt lat="43.20588" lon="5.51168">
        <ele>49.2</ele>
        <time>2018-04-02T11:38:05Z</time>
      </trkpt>
      <trkpt lat="43.20595" lon="5.51177">
        <ele>49.6</ele>
        <time>2018-04-02T11:38:16Z</time>
      </trkpt>
      <trkpt lat="43.20603" lon="5.51183">
        <ele>49.8</ele>
        <time>2018-04-02T11:38:29Z</time>
      </trkpt>
      <trkpt lat="43.20611" lon="5.51191">
        <ele>50.1</ele>
        <time>2018-04-02T11:38:39Z</time>
      </trkpt>
      <trkpt lat="43.20619" lon="5.51199">
        <ele>50.4</ele>
        <time>2018-04-02T11:38:47Z</time>
      </trkpt>
      <trkpt lat="43.20647" lon="5.51233">
        <ele>53.3</ele>
        <time>2018-04-02T11:39:26Z</time>
      </trkpt>
      <trkpt lat="43.20682" lon="5.51281">
        <ele>57.2</ele>
        <time>2018-04-02T11:40:15Z</time>
      </trkpt>
      <trkpt lat="43.20688" lon="5.5129">
        <ele>57</ele>
        <time>2018-04-02T11:40:23Z</time>
      </trkpt>
      <trkpt lat="43.20694" lon="5.513">
        <ele>57</ele>
        <time>2018-04-02T11:40:32Z</time>
      </trkpt>
      <trkpt lat="43.20698" lon="5.51311">
        <ele>57.1</ele>
        <time>2018-04-02T11:40:41Z</time>
      </trkpt>
      <trkpt lat="43.20703" lon="5.51324">
        <ele>57.3</ele>
        <time>2018-04-02T11:40:50Z</time>
      </trkpt>
      <trkpt lat="43.20709" lon="5.51333">
        <ele>57.4</ele>
        <time>2018-04-02T11:40:59Z</time>
      </trkpt>
      <trkpt lat="43.20717" lon="5.51341">
        <ele>56.1</ele>
        <time>2018-04-02T11:41:09Z</time>
      </trkpt>
      <trkpt lat="43.20725" lon="5.51348">
        <ele>56.4</ele>
        <time>2018-04-02T11:41:18Z</time>
      </trkpt>
      <trkpt lat="43.20741" lon="5.5136">
        <ele>56.5</ele>
        <time>2018-04-02T11:41:36Z</time>
      </trkpt>
      <trkpt lat="43.20749" lon="5.51368">
        <ele>56.3</ele>
        <time>2018-04-02T11:41:46Z</time>
      </trkpt>
      <trkpt lat="43.20757" lon="5.51375">
        <ele>57.4</ele>
        <time>2018-04-02T11:41:58Z</time>
      </trkpt>
      <trkpt lat="43.20764" lon="5.51384">
        <ele>57.3</ele>
        <time>2018-04-02T11:42:08Z</time>
      </trkpt>
      <trkpt lat="43.20801" lon="5.51424">
        <ele>53.7</ele>
        <time>2018-04-02T11:42:52Z</time>
      </trkpt>
      <trkpt lat="43.20811" lon="5.51429">
        <ele>54.4</ele>
        <time>2018-04-02T11:43:00Z</time>
      </trkpt>
      <trkpt lat="43.2082" lon="5.51432">
        <ele>55.2</ele>
        <time>2018-04-02T11:43:08Z</time>
      </trkpt>
      <trkpt lat="43.20829" lon="5.51432">
        <ele>56</ele>
        <time>2018-04-02T11:43:16Z</time>
      </trkpt>
      <trkpt lat="43.20839" lon="5.51436">
        <ele>61</ele>
        <time>2018-04-02T11:43:28Z</time>
      </trkpt>
      <trkpt lat="43.20848" lon="5.5144">
        <ele>61.3</ele>
        <time>2018-04-02T11:43:43Z</time>
      </trkpt>
      <trkpt lat="43.20856" lon="5.51446">
        <ele>61.6</ele>
        <time>2018-04-02T11:44:11Z</time>
      </trkpt>
      <trkpt lat="43.20865" lon="5.51452">
        <ele>62</ele>
        <time>2018-04-02T11:44:23Z</time>
      </trkpt>
      <trkpt lat="43.20874" lon="5.51456">
        <ele>62.4</ele>
        <time>2018-04-02T11:44:35Z</time>
      </trkpt>
      <trkpt lat="43.20892" lon="5.51461">
        <ele>63.3</ele>
        <time>2018-04-02T11:44:58Z</time>
      </trkpt>
      <trkpt lat="43.20912" lon="5.51464">
        <ele>64.2</ele>
        <time>2018-04-02T11:45:20Z</time>
      </trkpt>
      <trkpt lat="43.2092" lon="5.51468">
        <ele>66.6</ele>
        <time>2018-04-02T11:45:29Z</time>
      </trkpt>
      <trkpt lat="43.2093" lon="5.5147">
        <ele>66.6</ele>
        <time>2018-04-02T11:45:39Z</time>
      </trkpt>
      <trkpt lat="43.2094" lon="5.51469">
        <ele>66.4</ele>
        <time>2018-04-02T11:45:48Z</time>
      </trkpt>
      <trkpt lat="43.2095" lon="5.5147">
        <ele>66.3</ele>
        <time>2018-04-02T11:45:57Z</time>
      </trkpt>
      <trkpt lat="43.20959" lon="5.51473">
        <ele>66.3</ele>
        <time>2018-04-02T11:46:06Z</time>
      </trkpt>
      <trkpt lat="43.20968" lon="5.51476">
        <ele>66.5</ele>
        <time>2018-04-02T11:46:15Z</time>
      </trkpt>
      <trkpt lat="43.20976" lon="5.51481">
        <ele>66.9</ele>
        <time>2018-04-02T11:46:25Z</time>
      </trkpt>
      <trkpt lat="43.20985" lon="5.51483">
        <ele>67.3</ele>
        <time>2018-04-02T11:50:21Z</time>
      </trkpt>
      <trkpt lat="43.20991" lon="5.51494">
        <ele>68.4</ele>
        <time>2018-04-02T11:50:31Z</time>
      </trkpt>
      <trkpt lat="43.20995" lon="5.51506">
        <ele>69.1</ele>
        <time>2018-04-02T11:50:40Z</time>
      </trkpt>
      <trkpt lat="43.21001" lon="5.51516">
        <ele>69.8</ele>
        <time>2018-04-02T11:50:51Z</time>
      </trkpt>
      <trkpt lat="43.21007" lon="5.51524">
        <ele>69.7</ele>
        <time>2018-04-02T11:50:59Z</time>
      </trkpt>
      <trkpt lat="43.21023" lon="5.51539">
        <ele>69.6</ele>
        <time>2018-04-02T11:51:17Z</time>
      </trkpt>
      <trkpt lat="43.21037" lon="5.51557">
        <ele>69.7</ele>
        <time>2018-04-02T11:51:34Z</time>
      </trkpt>
      <trkpt lat="43.21051" lon="5.51575">
        <ele>70.1</ele>
        <time>2018-04-02T11:51:51Z</time>
      </trkpt>
      <trkpt lat="43.21056" lon="5.51586">
        <ele>68</ele>
        <time>2018-04-02T11:51:59Z</time>
      </trkpt>
      <trkpt lat="43.21067" lon="5.51606">
        <ele>67.8</ele>
        <time>2018-04-02T11:52:15Z</time>
      </trkpt>
      <trkpt lat="43.21073" lon="5.51616">
        <ele>67.3</ele>
        <time>2018-04-02T11:52:24Z</time>
      </trkpt>
      <trkpt lat="43.21079" lon="5.51625">
        <ele>66.9</ele>
        <time>2018-04-02T11:52:33Z</time>
      </trkpt>
      <trkpt lat="43.21086" lon="5.51634">
        <ele>74.6</ele>
        <time>2018-04-02T11:52:42Z</time>
      </trkpt>
      <trkpt lat="43.21094" lon="5.51642">
        <ele>74.3</ele>
        <time>2018-04-02T11:52:51Z</time>
      </trkpt>
      <trkpt lat="43.21101" lon="5.51652">
        <ele>74.1</ele>
        <time>2018-04-02T11:53:02Z</time>
      </trkpt>
      <trkpt lat="43.21157" lon="5.51723">
        <ele>79</ele>
        <time>2018-04-02T11:54:26Z</time>
      </trkpt>
      <trkpt lat="43.21165" lon="5.5173">
        <ele>80.4</ele>
        <time>2018-04-02T11:54:37Z</time>
      </trkpt>
      <trkpt lat="43.21173" lon="5.51737">
        <ele>90.6</ele>
        <time>2018-04-02T11:54:49Z</time>
      </trkpt>
      <trkpt lat="43.21181" lon="5.51743">
        <ele>91.2</ele>
        <time>2018-04-02T11:55:03Z</time>
      </trkpt>
      <trkpt lat="43.2119" lon="5.51745">
        <ele>93.1</ele>
        <time>2018-04-02T11:55:24Z</time>
      </trkpt>
      <trkpt lat="43.21197" lon="5.51756">
        <ele>91.4</ele>
        <time>2018-04-02T11:56:08Z</time>
      </trkpt>
      <trkpt lat="43.21247" lon="5.51836">
        <ele>98.4</ele>
        <time>2018-04-02T11:57:28Z</time>
      </trkpt>
      <trkpt lat="43.21249" lon="5.51848">
        <ele>93.6</ele>
        <time>2018-04-02T11:57:37Z</time>
      </trkpt>
      <trkpt lat="43.21252" lon="5.51861">
        <ele>102.6</ele>
        <time>2018-04-02T11:57:47Z</time>
      </trkpt>
      <trkpt lat="43.21258" lon="5.51871">
        <ele>102.5</ele>
        <time>2018-04-02T11:57:57Z</time>
      </trkpt>
      <trkpt lat="43.21281" lon="5.51913">
        <ele>102.2</ele>
        <time>2018-04-02T11:58:38Z</time>
      </trkpt>
      <trkpt lat="43.21283" lon="5.51926">
        <ele>99.5</ele>
        <time>2018-04-02T11:58:50Z</time>
      </trkpt>
      <trkpt lat="43.21287" lon="5.51938">
        <ele>99.9</ele>
        <time>2018-04-02T12:05:07Z</time>
      </trkpt>
      <trkpt lat="43.21294" lon="5.51948">
        <ele>100.6</ele>
        <time>2018-04-02T12:05:17Z</time>
      </trkpt>
      <trkpt lat="43.213" lon="5.51957">
        <ele>101</ele>
        <time>2018-04-02T12:05:28Z</time>
      </trkpt>
      <trkpt lat="43.21305" lon="5.51968">
        <ele>101.2</ele>
        <time>2018-04-02T12:05:38Z</time>
      </trkpt>
      <trkpt lat="43.21313" lon="5.51976">
        <ele>102.1</ele>
        <time>2018-04-02T12:05:47Z</time>
      </trkpt>
      <trkpt lat="43.21334" lon="5.52003">
        <ele>107.4</ele>
        <time>2018-04-02T12:06:15Z</time>
      </trkpt>
      <trkpt lat="43.21339" lon="5.52015">
        <ele>108.2</ele>
        <time>2018-04-02T12:06:24Z</time>
      </trkpt>
      <trkpt lat="43.2134" lon="5.52028">
        <ele>108.3</ele>
        <time>2018-04-02T12:06:36Z</time>
      </trkpt>
      <trkpt lat="43.21336" lon="5.5204">
        <ele>107.5</ele>
        <time>2018-04-02T12:06:45Z</time>
      </trkpt>
      <trkpt lat="43.21334" lon="5.52052">
        <ele>106.3</ele>
        <time>2018-04-02T12:06:56Z</time>
      </trkpt>
      <trkpt lat="43.21332" lon="5.52065">
        <ele>95.1</ele>
        <time>2018-04-02T12:07:07Z</time>
      </trkpt>
      <trkpt lat="43.2133" lon="5.52077">
        <ele>96.3</ele>
        <time>2018-04-02T12:07:19Z</time>
      </trkpt>
      <trkpt lat="43.21329" lon="5.52091">
        <ele>90.6</ele>
        <time>2018-04-02T12:07:34Z</time>
      </trkpt>
      <trkpt lat="43.21331" lon="5.52104">
        <ele>84.3</ele>
        <time>2018-04-02T12:07:44Z</time>
      </trkpt>
      <trkpt lat="43.21334" lon="5.52116">
        <ele>97.3</ele>
        <time>2018-04-02T12:07:53Z</time>
      </trkpt>
      <trkpt lat="43.21334" lon="5.52129">
        <ele>95.5</ele>
        <time>2018-04-02T12:08:03Z</time>
      </trkpt>
      <trkpt lat="43.21333" lon="5.52142">
        <ele>76.9</ele>
        <time>2018-04-02T12:08:14Z</time>
      </trkpt>
      <trkpt lat="43.21332" lon="5.52167">
        <ele>78.3</ele>
        <time>2018-04-02T12:08:41Z</time>
      </trkpt>
      <trkpt lat="43.21338" lon="5.52178">
        <ele>79.2</ele>
        <time>2018-04-02T12:09:17Z</time>
      </trkpt>
      <trkpt lat="43.2134" lon="5.5219">
        <ele>77.8</ele>
        <time>2018-04-02T12:09:31Z</time>
      </trkpt>
      <trkpt lat="43.21347" lon="5.52199">
        <ele>76.7</ele>
        <time>2018-04-02T12:09:43Z</time>
      </trkpt>
      <trkpt lat="43.21368" lon="5.52224">
        <ele>74.3</ele>
        <time>2018-04-02T12:10:14Z</time>
      </trkpt>
      <trkpt lat="43.21373" lon="5.52235">
        <ele>73.5</ele>
        <time>2018-04-02T12:10:25Z</time>
      </trkpt>
      <trkpt lat="43.21371" lon="5.52247">
        <ele>71.7</ele>
        <time>2018-04-02T12:10:36Z</time>
      </trkpt>
      <trkpt lat="43.21363" lon="5.52244">
        <ele>69.7</ele>
        <time>2018-04-02T12:11:18Z</time>
      </trkpt>
      <trkpt lat="43.21356" lon="5.52235">
        <ele>69.1</ele>
        <time>2018-04-02T12:11:33Z</time>
      </trkpt>
      <trkpt lat="43.21349" lon="5.52226">
        <ele>69.9</ele>
        <time>2018-04-02T12:11:47Z</time>
      </trkpt>
      <trkpt lat="43.21345" lon="5.52214">
        <ele>72.9</ele>
        <time>2018-04-02T12:11:57Z</time>
      </trkpt>
      <trkpt lat="43.21339" lon="5.52205">
        <ele>74.7</ele>
        <time>2018-04-02T12:12:07Z</time>
      </trkpt>
      <trkpt lat="43.21331" lon="5.52196">
        <ele>59.1</ele>
        <time>2018-04-02T12:12:18Z</time>
      </trkpt>
      <trkpt lat="43.21324" lon="5.52188">
        <ele>61.2</ele>
        <time>2018-04-02T12:12:31Z</time>
      </trkpt>
      <trkpt lat="43.21315" lon="5.52194">
        <ele>56.9</ele>
        <time>2018-04-02T12:12:46Z</time>
      </trkpt>
      <trkpt lat="43.2132" lon="5.52205">
        <ele>54.9</ele>
        <time>2018-04-02T12:13:01Z</time>
      </trkpt>
      <trkpt lat="43.21328" lon="5.52213">
        <ele>54</ele>
        <time>2018-04-02T12:13:13Z</time>
      </trkpt>
      <trkpt lat="43.21331" lon="5.52225">
        <ele>52.2</ele>
        <time>2018-04-02T12:13:24Z</time>
      </trkpt>
      <trkpt lat="43.21333" lon="5.52238">
        <ele>51.1</ele>
        <time>2018-04-02T12:13:35Z</time>
      </trkpt>
      <trkpt lat="43.21336" lon="5.5225">
        <ele>53.8</ele>
        <time>2018-04-02T12:13:47Z</time>
      </trkpt>
      <trkpt lat="43.21343" lon="5.52259">
        <ele>51</ele>
        <time>2018-04-02T12:14:00Z</time>
      </trkpt>
      <trkpt lat="43.21351" lon="5.52265">
        <ele>51.1</ele>
        <time>2018-04-02T12:14:12Z</time>
      </trkpt>
      <trkpt lat="43.21358" lon="5.52272">
        <ele>51.1</ele>
        <time>2018-04-02T12:14:24Z</time>
      </trkpt>
      <trkpt lat="43.21367" lon="5.52279">
        <ele>51.2</ele>
        <time>2018-04-02T12:14:38Z</time>
      </trkpt>
      <trkpt lat="43.21372" lon="5.52291">
        <ele>50.1</ele>
        <time>2018-04-02T12:14:49Z</time>
      </trkpt>
      <trkpt lat="43.21363" lon="5.52286">
        <ele>49.9</ele>
        <time>2018-04-02T12:15:20Z</time>
      </trkpt>
      <trkpt lat="43.21353" lon="5.52288">
        <ele>48.9</ele>
        <time>2018-04-02T12:15:34Z</time>
      </trkpt>
      <trkpt lat="43.21344" lon="5.52286">
        <ele>48.6</ele>
        <time>2018-04-02T12:15:46Z</time>
      </trkpt>
      <trkpt lat="43.21336" lon="5.52281">
        <ele>48.9</ele>
        <time>2018-04-02T12:15:57Z</time>
      </trkpt>
      <trkpt lat="43.21327" lon="5.52275">
        <ele>42.5</ele>
        <time>2018-04-02T12:16:09Z</time>
      </trkpt>
      <trkpt lat="43.21322" lon="5.52264">
        <ele>44</ele>
        <time>2018-04-02T12:16:20Z</time>
      </trkpt>
      <trkpt lat="43.21314" lon="5.52257">
        <ele>43.3</ele>
        <time>2018-04-02T12:16:32Z</time>
      </trkpt>
      <trkpt lat="43.21298" lon="5.52244">
        <ele>47</ele>
        <time>2018-04-02T12:16:55Z</time>
      </trkpt>
      <trkpt lat="43.21291" lon="5.52235">
        <ele>46.2</ele>
        <time>2018-04-02T12:17:06Z</time>
      </trkpt>
      <trkpt lat="43.21285" lon="5.52225">
        <ele>45.9</ele>
        <time>2018-04-02T12:17:16Z</time>
      </trkpt>
      <trkpt lat="43.21279" lon="5.52213">
        <ele>46.3</ele>
        <time>2018-04-02T12:17:28Z</time>
      </trkpt>
      <trkpt lat="43.2127" lon="5.52211">
        <ele>45</ele>
        <time>2018-04-02T12:17:41Z</time>
      </trkpt>
      <trkpt lat="43.21261" lon="5.52211">
        <ele>43.7</ele>
        <time>2018-04-02T12:17:52Z</time>
      </trkpt>
      <trkpt lat="43.21248" lon="5.52203">
        <ele>31.2</ele>
        <time>2018-04-02T12:18:24Z</time>
      </trkpt>
      <trkpt lat="43.21239" lon="5.52201">
        <ele>31.1</ele>
        <time>2018-04-02T12:18:40Z</time>
      </trkpt>
      <trkpt lat="43.21229" lon="5.52201">
        <ele>30.5</ele>
        <time>2018-04-02T12:18:50Z</time>
      </trkpt>
      <trkpt lat="43.21221" lon="5.52195">
        <ele>30.3</ele>
        <time>2018-04-02T12:19:09Z</time>
      </trkpt>
      <trkpt lat="43.21211" lon="5.52196">
        <ele>29.4</ele>
        <time>2018-04-02T12:19:14Z</time>
      </trkpt>
      <trkpt lat="43.21203" lon="5.522">
        <ele>28.9</ele>
        <time>2018-04-02T12:19:21Z</time>
      </trkpt>
      <trkpt lat="43.21193" lon="5.52206">
        <ele>28.5</ele>
        <time>2018-04-02T12:19:37Z</time>
      </trkpt>
      <trkpt lat="43.21184" lon="5.52204">
        <ele>27.9</ele>
        <time>2018-04-02T12:19:47Z</time>
      </trkpt>
      <trkpt lat="43.21175" lon="5.52201">
        <ele>27.3</ele>
        <time>2018-04-02T12:19:58Z</time>
      </trkpt>
      <trkpt lat="43.21167" lon="5.52197">
        <ele>26.5</ele>
        <time>2018-04-02T12:20:09Z</time>
      </trkpt>
      <trkpt lat="43.21158" lon="5.52201">
        <ele>25.6</ele>
        <time>2018-04-02T12:20:23Z</time>
      </trkpt>
      <trkpt lat="43.2115" lon="5.52208">
        <ele>26.6</ele>
        <time>2018-04-02T12:20:45Z</time>
      </trkpt>
      <trkpt lat="43.21144" lon="5.52218">
        <ele>27.7</ele>
        <time>2018-04-02T12:21:46Z</time>
      </trkpt>
      <trkpt lat="43.21142" lon="5.52231">
        <ele>28.8</ele>
        <time>2018-04-02T12:21:59Z</time>
      </trkpt>
      <trkpt lat="43.2114" lon="5.52244">
        <ele>29.6</ele>
        <time>2018-04-02T12:22:09Z</time>
      </trkpt>
      <trkpt lat="43.21139" lon="5.52257">
        <ele>39.1</ele>
        <time>2018-04-02T12:22:22Z</time>
      </trkpt>
      <trkpt lat="43.21137" lon="5.5227">
        <ele>40.3</ele>
        <time>2018-04-02T12:22:34Z</time>
      </trkpt>
      <trkpt lat="43.21137" lon="5.52283">
        <ele>41.6</ele>
        <time>2018-04-02T12:22:45Z</time>
      </trkpt>
      <trkpt lat="43.21139" lon="5.52295">
        <ele>42.7</ele>
        <time>2018-04-02T12:22:57Z</time>
      </trkpt>
      <trkpt lat="43.21139" lon="5.52308">
        <ele>44</ele>
        <time>2018-04-02T12:23:08Z</time>
      </trkpt>
      <trkpt lat="43.21139" lon="5.52322">
        <ele>45.1</ele>
        <time>2018-04-02T12:23:18Z</time>
      </trkpt>
      <trkpt lat="43.21142" lon="5.52334">
        <ele>50.2</ele>
        <time>2018-04-02T12:23:27Z</time>
      </trkpt>
      <trkpt lat="43.21157" lon="5.52382">
        <ele>51</ele>
        <time>2018-04-02T12:24:04Z</time>
      </trkpt>
      <trkpt lat="43.21156" lon="5.52394">
        <ele>51.3</ele>
        <time>2018-04-02T12:24:16Z</time>
      </trkpt>
      <trkpt lat="43.21148" lon="5.52401">
        <ele>51.3</ele>
        <time>2018-04-02T12:24:25Z</time>
      </trkpt>
      <trkpt lat="43.21141" lon="5.52409">
        <ele>51.4</ele>
        <time>2018-04-02T12:24:34Z</time>
      </trkpt>
      <trkpt lat="43.21127" lon="5.52426">
        <ele>52</ele>
        <time>2018-04-02T12:24:55Z</time>
      </trkpt>
      <trkpt lat="43.21119" lon="5.52432">
        <ele>52</ele>
        <time>2018-04-02T12:25:04Z</time>
      </trkpt>
      <trkpt lat="43.21109" lon="5.52437">
        <ele>52</ele>
        <time>2018-04-02T12:25:13Z</time>
      </trkpt>
      <trkpt lat="43.21104" lon="5.52448">
        <ele>51.9</ele>
        <time>2018-04-02T12:25:25Z</time>
      </trkpt>
      <trkpt lat="43.21105" lon="5.5246">
        <ele>51.9</ele>
        <time>2018-04-02T12:25:36Z</time>
      </trkpt>
      <trkpt lat="43.21107" lon="5.52473">
        <ele>51.8</ele>
        <time>2018-04-02T12:25:49Z</time>
      </trkpt>
      <trkpt lat="43.2111" lon="5.52485">
        <ele>51.8</ele>
        <time>2018-04-02T12:25:58Z</time>
      </trkpt>
      <trkpt lat="43.21113" lon="5.52497">
        <ele>51.8</ele>
        <time>2018-04-02T12:26:06Z</time>
      </trkpt>
      <trkpt lat="43.21128" lon="5.52545">
        <ele>51.6</ele>
        <time>2018-04-02T12:26:41Z</time>
      </trkpt>
      <trkpt lat="43.21132" lon="5.52557">
        <ele>51.6</ele>
        <time>2018-04-02T12:26:50Z</time>
      </trkpt>
      <trkpt lat="43.21141" lon="5.5258">
        <ele>52.1</ele>
        <time>2018-04-02T12:27:06Z</time>
      </trkpt>
      <trkpt lat="43.21141" lon="5.52593">
        <ele>49.7</ele>
        <time>2018-04-02T12:28:02Z</time>
      </trkpt>
      <trkpt lat="43.21144" lon="5.52605">
        <ele>49.3</ele>
        <time>2018-04-02T12:28:11Z</time>
      </trkpt>
      <trkpt lat="43.21149" lon="5.52616">
        <ele>48.9</ele>
        <time>2018-04-02T12:28:20Z</time>
      </trkpt>
      <trkpt lat="43.21159" lon="5.52638">
        <ele>48.1</ele>
        <time>2018-04-02T12:28:34Z</time>
      </trkpt>
      <trkpt lat="43.21163" lon="5.5265">
        <ele>47.9</ele>
        <time>2018-04-02T12:28:40Z</time>
      </trkpt>
      <trkpt lat="43.21167" lon="5.52662">
        <ele>48.9</ele>
        <time>2018-04-02T12:28:47Z</time>
      </trkpt>
      <trkpt lat="43.21173" lon="5.52688">
        <ele>48.4</ele>
        <time>2018-04-02T12:29:03Z</time>
      </trkpt>
      <trkpt lat="43.21172" lon="5.527">
        <ele>48.1</ele>
        <time>2018-04-02T12:29:13Z</time>
      </trkpt>
      <trkpt lat="43.21173" lon="5.52712">
        <ele>47.6</ele>
        <time>2018-04-02T12:29:21Z</time>
      </trkpt>
      <trkpt lat="43.21172" lon="5.52725">
        <ele>46.6</ele>
        <time>2018-04-02T12:29:32Z</time>
      </trkpt>
      <trkpt lat="43.21171" lon="5.52739">
        <ele>44.8</ele>
        <time>2018-04-02T12:29:49Z</time>
      </trkpt>
      <trkpt lat="43.21175" lon="5.52752">
        <ele>43.1</ele>
        <time>2018-04-02T12:29:58Z</time>
      </trkpt>
      <trkpt lat="43.21178" lon="5.52764">
        <ele>43.8</ele>
        <time>2018-04-02T12:30:06Z</time>
      </trkpt>
      <trkpt lat="43.21183" lon="5.52776">
        <ele>44.3</ele>
        <time>2018-04-02T12:30:13Z</time>
      </trkpt>
      <trkpt lat="43.21186" lon="5.52788">
        <ele>44.3</ele>
        <time>2018-04-02T12:30:20Z</time>
      </trkpt>
      <trkpt lat="43.21191" lon="5.52799">
        <ele>44.3</ele>
        <time>2018-04-02T12:30:27Z</time>
      </trkpt>
      <trkpt lat="43.21196" lon="5.52811">
        <ele>44.2</ele>
        <time>2018-04-02T12:30:35Z</time>
      </trkpt>
      <trkpt lat="43.212" lon="5.52823">
        <ele>44.2</ele>
        <time>2018-04-02T12:30:45Z</time>
      </trkpt>
      <trkpt lat="43.21207" lon="5.52848">
        <ele>39.1</ele>
        <time>2018-04-02T12:31:03Z</time>
      </trkpt>
      <trkpt lat="43.21212" lon="5.52859">
        <ele>38.8</ele>
        <time>2018-04-02T12:31:12Z</time>
      </trkpt>
      <trkpt lat="43.21214" lon="5.52872">
        <ele>38</ele>
        <time>2018-04-02T12:31:20Z</time>
      </trkpt>
      <trkpt lat="43.21215" lon="5.52884">
        <ele>37.2</ele>
        <time>2018-04-02T12:31:28Z</time>
      </trkpt>
      <trkpt lat="43.21216" lon="5.52898">
        <ele>36.4</ele>
        <time>2018-04-02T12:31:38Z</time>
      </trkpt>
      <trkpt lat="43.21218" lon="5.5291">
        <ele>36</ele>
        <time>2018-04-02T12:31:47Z</time>
      </trkpt>
      <trkpt lat="43.21222" lon="5.52921">
        <ele>28.9</ele>
        <time>2018-04-02T12:31:58Z</time>
      </trkpt>
      <trkpt lat="43.21224" lon="5.52933">
        <ele>28.4</ele>
        <time>2018-04-02T12:32:07Z</time>
      </trkpt>
      <trkpt lat="43.21225" lon="5.52947">
        <ele>27.2</ele>
        <time>2018-04-02T12:32:18Z</time>
      </trkpt>
      <trkpt lat="43.21223" lon="5.52961">
        <ele>25.8</ele>
        <time>2018-04-02T12:32:33Z</time>
      </trkpt>
      <trkpt lat="43.2122" lon="5.52986">
        <ele>24.2</ele>
        <time>2018-04-02T12:32:52Z</time>
      </trkpt>
      <trkpt lat="43.21221" lon="5.52998">
        <ele>23.8</ele>
        <time>2018-04-02T12:33:01Z</time>
      </trkpt>
      <trkpt lat="43.21223" lon="5.53011">
        <ele>17.9</ele>
        <time>2018-04-02T12:33:11Z</time>
      </trkpt>
      <trkpt lat="43.21229" lon="5.53036">
        <ele>16.6</ele>
        <time>2018-04-02T12:33:31Z</time>
      </trkpt>
      <trkpt lat="43.21229" lon="5.53049">
        <ele>15.7</ele>
        <time>2018-04-02T12:33:39Z</time>
      </trkpt>
      <trkpt lat="43.21226" lon="5.53062">
        <ele>15</ele>
        <time>2018-04-02T12:33:49Z</time>
      </trkpt>
      <trkpt lat="43.21232" lon="5.53071">
        <ele>14.5</ele>
        <time>2018-04-02T12:34:10Z</time>
      </trkpt>
      <trkpt lat="43.21241" lon="5.53078">
        <ele>13.9</ele>
        <time>2018-04-02T12:34:21Z</time>
      </trkpt>
      <trkpt lat="43.2125" lon="5.53078">
        <ele>13.6</ele>
        <time>2018-04-02T12:34:31Z</time>
      </trkpt>
      <trkpt lat="43.2126" lon="5.5308">
        <ele>14.8</ele>
        <time>2018-04-02T12:34:41Z</time>
      </trkpt>
      <trkpt lat="43.21279" lon="5.53084">
        <ele>13.4</ele>
        <time>2018-04-02T12:35:02Z</time>
      </trkpt>
      <trkpt lat="43.21289" lon="5.53089">
        <ele>13.8</ele>
        <time>2018-04-02T12:35:11Z</time>
      </trkpt>
      <trkpt lat="43.21295" lon="5.53098">
        <ele>13.9</ele>
        <time>2018-04-02T12:35:21Z</time>
      </trkpt>
      <trkpt lat="43.21303" lon="5.53107">
        <ele>14</ele>
        <time>2018-04-02T12:35:32Z</time>
      </trkpt>
      <trkpt lat="43.21312" lon="5.53111">
        <ele>14.3</ele>
        <time>2018-04-02T12:35:40Z</time>
      </trkpt>
      <trkpt lat="43.2132" lon="5.53116">
        <ele>14.4</ele>
        <time>2018-04-02T12:35:49Z</time>
      </trkpt>
      <trkpt lat="43.21324" lon="5.53128">
        <ele>14.1</ele>
        <time>2018-04-02T12:36:03Z</time>
      </trkpt>
      <trkpt lat="43.21332" lon="5.53151">
        <ele>14.2</ele>
        <time>2018-04-02T12:36:25Z</time>
      </trkpt>
      <trkpt lat="43.21337" lon="5.5316">
        <ele>18.3</ele>
        <time>2018-04-02T12:36:34Z</time>
      </trkpt>
      <trkpt lat="43.21345" lon="5.53169">
        <ele>18.4</ele>
        <time>2018-04-02T12:36:42Z</time>
      </trkpt>
      <trkpt lat="43.21353" lon="5.53176">
        <ele>20.4</ele>
        <time>2018-04-02T12:36:51Z</time>
      </trkpt>
      <trkpt lat="43.2136" lon="5.53185">
        <ele>21.8</ele>
        <time>2018-04-02T12:37:02Z</time>
      </trkpt>
      <trkpt lat="43.21366" lon="5.53195">
        <ele>22.7</ele>
        <time>2018-04-02T12:37:12Z</time>
      </trkpt>
      <trkpt lat="43.2137" lon="5.53207">
        <ele>22.9</ele>
        <time>2018-04-02T12:37:21Z</time>
      </trkpt>
      <trkpt lat="43.21374" lon="5.53218">
        <ele>23.1</ele>
        <time>2018-04-02T12:37:29Z</time>
      </trkpt>
      <trkpt lat="43.21379" lon="5.53229">
        <ele>23.5</ele>
        <time>2018-04-02T12:37:36Z</time>
      </trkpt>
      <trkpt lat="43.21385" lon="5.53239">
        <ele>24.2</ele>
        <time>2018-04-02T12:37:43Z</time>
      </trkpt>
      <trkpt lat="43.21394" lon="5.53244">
        <ele>25.6</ele>
        <time>2018-04-02T12:37:52Z</time>
      </trkpt>
      <trkpt lat="43.214" lon="5.53255">
        <ele>24.1</ele>
        <time>2018-04-02T12:38:04Z</time>
      </trkpt>
      <trkpt lat="43.21404" lon="5.53266">
        <ele>23.6</ele>
        <time>2018-04-02T12:38:11Z</time>
      </trkpt>
      <trkpt lat="43.21409" lon="5.53278">
        <ele>22.5</ele>
        <time>2018-04-02T12:38:18Z</time>
      </trkpt>
      <trkpt lat="43.21412" lon="5.5329">
        <ele>21.5</ele>
        <time>2018-04-02T12:38:26Z</time>
      </trkpt>
      <trkpt lat="43.21418" lon="5.53299">
        <ele>29.4</ele>
        <time>2018-04-02T12:38:38Z</time>
      </trkpt>
      <trkpt lat="43.21427" lon="5.53305">
        <ele>29.2</ele>
        <time>2018-04-02T12:39:01Z</time>
      </trkpt>
      <trkpt lat="43.21435" lon="5.53312">
        <ele>29.1</ele>
        <time>2018-04-02T12:39:11Z</time>
      </trkpt>
      <trkpt lat="43.21445" lon="5.53318">
        <ele>29.8</ele>
        <time>2018-04-02T12:39:19Z</time>
      </trkpt>
      <trkpt lat="43.21452" lon="5.53325">
        <ele>30.4</ele>
        <time>2018-04-02T12:39:26Z</time>
      </trkpt>
      <trkpt lat="43.21456" lon="5.53338">
        <ele>25.8</ele>
        <time>2018-04-02T12:39:35Z</time>
      </trkpt>
      <trkpt lat="43.2146" lon="5.5335">
        <ele>25.9</ele>
        <time>2018-04-02T12:40:14Z</time>
      </trkpt>
      <trkpt lat="43.21456" lon="5.53362">
        <ele>25.1</ele>
        <time>2018-04-02T12:40:39Z</time>
      </trkpt>
      <trkpt lat="43.21449" lon="5.5337">
        <ele>24.3</ele>
        <time>2018-04-02T12:41:30Z</time>
      </trkpt>
      <trkpt lat="43.21442" lon="5.53378">
        <ele>23.5</ele>
        <time>2018-04-02T12:42:16Z</time>
      </trkpt>
      <trkpt lat="43.21434" lon="5.53383">
        <ele>22.7</ele>
        <time>2018-04-02T12:44:00Z</time>
      </trkpt>
      <trkpt lat="43.21429" lon="5.53394">
        <ele>21.5</ele>
        <time>2018-04-02T12:44:16Z</time>
      </trkpt>
      <trkpt lat="43.21433" lon="5.53406">
        <ele>20.7</ele>
        <time>2018-04-02T12:44:37Z</time>
      </trkpt>
      <trkpt lat="43.21436" lon="5.53418">
        <ele>17.1</ele>
        <time>2018-04-02T12:44:47Z</time>
      </trkpt>
      <trkpt lat="43.21437" lon="5.5343">
        <ele>17</ele>
        <time>2018-04-02T12:44:58Z</time>
      </trkpt>
      <trkpt lat="43.21443" lon="5.5344">
        <ele>17.2</ele>
        <time>2018-04-02T12:45:11Z</time>
      </trkpt>
      <trkpt lat="43.2145" lon="5.5345">
        <ele>17.2</ele>
        <time>2018-04-02T12:45:21Z</time>
      </trkpt>
      <trkpt lat="43.21454" lon="5.53461">
        <ele>16.9</ele>
        <time>2018-04-02T12:45:31Z</time>
      </trkpt>
      <trkpt lat="43.21459" lon="5.53472">
        <ele>16.7</ele>
        <time>2018-04-02T12:45:39Z</time>
      </trkpt>
      <trkpt lat="43.21465" lon="5.53482">
        <ele>16.6</ele>
        <time>2018-04-02T12:45:49Z</time>
      </trkpt>
      <trkpt lat="43.21471" lon="5.53491">
        <ele>16.7</ele>
        <time>2018-04-02T12:45:59Z</time>
      </trkpt>
      <trkpt lat="43.21477" lon="5.53502">
        <ele>13.4</ele>
        <time>2018-04-02T12:46:10Z</time>
      </trkpt>
      <trkpt lat="43.2148" lon="5.53514">
        <ele>13.3</ele>
        <time>2018-04-02T12:46:19Z</time>
      </trkpt>
      <trkpt lat="43.21482" lon="5.53527">
        <ele>12.8</ele>
        <time>2018-04-02T12:46:29Z</time>
      </trkpt>
      <trkpt lat="43.21476" lon="5.53537">
        <ele>12.1</ele>
        <time>2018-04-02T12:46:38Z</time>
      </trkpt>
      <trkpt lat="43.2147" lon="5.53546">
        <ele>11.5</ele>
        <time>2018-04-02T12:46:51Z</time>
      </trkpt>
      <trkpt lat="43.21461" lon="5.53558">
        <ele>10.7</ele>
        <time>2018-04-02T12:47:02Z</time>
      </trkpt>
      <trkpt lat="43.21456" lon="5.5357">
        <ele>10</ele>
        <time>2018-04-02T12:47:12Z</time>
      </trkpt>
      <trkpt lat="43.21452" lon="5.53582">
        <ele>9.4</ele>
        <time>2018-04-02T12:47:22Z</time>
      </trkpt>
      <trkpt lat="43.21449" lon="5.53595">
        <ele>6.8</ele>
        <time>2018-04-02T12:47:32Z</time>
      </trkpt>
      <trkpt lat="43.21449" lon="5.53608">
        <ele>6.8</ele>
        <time>2018-04-02T12:47:40Z</time>
      </trkpt>
      <trkpt lat="43.21452" lon="5.53621">
        <ele>6.9</ele>
        <time>2018-04-02T12:47:48Z</time>
      </trkpt>
      <trkpt lat="43.21456" lon="5.53634">
        <ele>7</ele>
        <time>2018-04-02T12:47:59Z</time>
      </trkpt>
      <trkpt lat="43.21461" lon="5.53659">
        <ele>7</ele>
        <time>2018-04-02T12:48:14Z</time>
      </trkpt>
      <trkpt lat="43.21469" lon="5.53697">
        <ele>6.9</ele>
        <time>2018-04-02T12:48:40Z</time>
      </trkpt>
      <trkpt lat="43.21469" lon="5.53709">
        <ele>6.9</ele>
        <time>2018-04-02T12:48:52Z</time>
      </trkpt>
      <trkpt lat="43.21464" lon="5.5372">
        <ele>6.8</ele>
        <time>2018-04-02T12:49:06Z</time>
      </trkpt>
      <trkpt lat="43.21459" lon="5.53731">
        <ele>6.7</ele>
        <time>2018-04-02T12:49:18Z</time>
      </trkpt>
      <trkpt lat="43.21449" lon="5.53732">
        <ele>6.2</ele>
        <time>2018-04-02T12:49:36Z</time>
      </trkpt>
      <trkpt lat="43.2144" lon="5.53735">
        <ele>5.8</ele>
        <time>2018-04-02T12:49:48Z</time>
      </trkpt>
      <trkpt lat="43.21431" lon="5.53735">
        <ele>5.4</ele>
        <time>2018-04-02T12:50:01Z</time>
      </trkpt>
      <trkpt lat="43.21426" lon="5.53746">
        <ele>4.8</ele>
        <time>2018-04-02T12:50:11Z</time>
      </trkpt>
      <trkpt lat="43.21422" lon="5.53758">
        <ele>5.4</ele>
        <time>2018-04-02T12:50:34Z</time>
      </trkpt>
      <trkpt lat="43.21426" lon="5.53769">
        <ele>6.5</ele>
        <time>2018-04-02T12:51:28Z</time>
      </trkpt>
      <trkpt lat="43.21374" lon="5.53993">
        <ele>13.3</ele>
        <time>2018-04-02T13:15:32Z</time>
      </trkpt>
      <trkpt lat="43.21367" lon="5.53999">
        <ele>14.1</ele>
        <time>2018-04-02T13:15:43Z</time>
      </trkpt>
      <trkpt lat="43.21369" lon="5.54011">
        <ele>16.8</ele>
        <time>2018-04-02T13:15:52Z</time>
      </trkpt>
      <trkpt lat="43.21374" lon="5.54023">
        <ele>16.5</ele>
        <time>2018-04-02T13:16:00Z</time>
      </trkpt>
      <trkpt lat="43.21376" lon="5.54036">
        <ele>16.5</ele>
        <time>2018-04-02T13:16:08Z</time>
      </trkpt>
      <trkpt lat="43.21376" lon="5.54049">
        <ele>16.8</ele>
        <time>2018-04-02T13:16:18Z</time>
      </trkpt>
      <trkpt lat="43.21376" lon="5.54062">
        <ele>17</ele>
        <time>2018-04-02T13:16:26Z</time>
      </trkpt>
      <trkpt lat="43.21377" lon="5.54075">
        <ele>17.1</ele>
        <time>2018-04-02T13:16:35Z</time>
      </trkpt>
      <trkpt lat="43.21376" lon="5.54088">
        <ele>18</ele>
        <time>2018-04-02T13:16:43Z</time>
      </trkpt>
      <trkpt lat="43.2137" lon="5.54097">
        <ele>18.8</ele>
        <time>2018-04-02T13:16:52Z</time>
      </trkpt>
      <trkpt lat="43.21369" lon="5.5411">
        <ele>18.7</ele>
        <time>2018-04-02T13:17:02Z</time>
      </trkpt>
      <trkpt lat="43.2137" lon="5.54125">
        <ele>18.4</ele>
        <time>2018-04-02T13:17:28Z</time>
      </trkpt>
    </trkseg>
  </trk>
</gpx>